<?xml version="1.0" encoding="UTF-8" standalone="no" ?>
<gpx xmlns="http://www.topografix.com/GPX/1/1" xmlns:xsi="http://www.w3.org/2001/XMLSchema-instance" xsi:schemaLocation="http://www.topografix.com/GPX/1/1 http://www.topografix.com/GPX/1/1/gpx.xsd" version="1.1" creator="VisuGPX - https://www.visugpx.com">
  <metadata>
    <name>Lampaul-Plouarzel</name>
    <desc><![CDATA[Lampaul-Plouarzel       Ile Ségal]]></desc>
  </metadata>
  <trk>
    <name><![CDATA[8223143-Lampaul-Plouarzel]]></name>
    <trkseg>
      <trkpt lat="48.44836" lon="-4.76264">
        <ele>35</ele>
        <time>2018-03-27T15:46:01Z</time>
      </trkpt>
      <trkpt lat="48.44836" lon="-4.7626">
        <ele>35</ele>
        <time>2018-03-27T15:47:01Z</time>
      </trkpt>
      <trkpt lat="48.44838" lon="-4.76259">
        <ele>35</ele>
        <time>2018-03-27T15:48:01Z</time>
      </trkpt>
      <trkpt lat="48.4488" lon="-4.76247">
        <ele>33</ele>
        <time>2018-03-27T15:49:01Z</time>
      </trkpt>
      <trkpt lat="48.44895" lon="-4.76246">
        <ele>33</ele>
        <time>2018-03-27T15:50:01Z</time>
      </trkpt>
      <trkpt lat="48.44896" lon="-4.76251">
        <ele>33</ele>
        <time>2018-03-27T15:51:01Z</time>
      </trkpt>
      <trkpt lat="48.44896" lon="-4.76251">
        <ele>33</ele>
        <time>2018-03-27T15:52:01Z</time>
      </trkpt>
      <trkpt lat="48.44902" lon="-4.76312">
        <ele>32</ele>
        <time>2018-03-27T15:53:01Z</time>
      </trkpt>
      <trkpt lat="48.44905" lon="-4.7632">
        <ele>32</ele>
        <time>2018-03-27T15:54:01Z</time>
      </trkpt>
      <trkpt lat="48.44908" lon="-4.7632">
        <ele>32</ele>
        <time>2018-03-27T15:55:01Z</time>
      </trkpt>
      <trkpt lat="48.44908" lon="-4.7632">
        <ele>32</ele>
        <time>2018-03-27T15:56:01Z</time>
      </trkpt>
      <trkpt lat="48.44947" lon="-4.76318">
        <ele>31</ele>
        <time>2018-03-27T15:57:01Z</time>
      </trkpt>
      <trkpt lat="48.44952" lon="-4.76314">
        <ele>31</ele>
        <time>2018-03-27T15:58:01Z</time>
      </trkpt>
      <trkpt lat="48.4496" lon="-4.76302">
        <ele>30</ele>
        <time>2018-03-27T15:59:01Z</time>
      </trkpt>
      <trkpt lat="48.4497" lon="-4.76293">
        <ele>29</ele>
        <time>2018-03-27T16:00:01Z</time>
      </trkpt>
      <trkpt lat="48.4501" lon="-4.76283">
        <ele>27</ele>
        <time>2018-03-27T16:01:01Z</time>
      </trkpt>
      <trkpt lat="48.45015" lon="-4.76288">
        <ele>27</ele>
        <time>2018-03-27T16:02:01Z</time>
      </trkpt>
      <trkpt lat="48.45025" lon="-4.76287">
        <ele>26</ele>
        <time>2018-03-27T16:03:01Z</time>
      </trkpt>
      <trkpt lat="48.45089" lon="-4.76247">
        <ele>20</ele>
        <time>2018-03-27T16:04:01Z</time>
      </trkpt>
      <trkpt lat="48.45099" lon="-4.76245">
        <ele>20</ele>
        <time>2018-03-27T16:05:01Z</time>
      </trkpt>
      <trkpt lat="48.45099" lon="-4.76245">
        <ele>20</ele>
        <time>2018-03-27T16:06:01Z</time>
      </trkpt>
      <trkpt lat="48.45101" lon="-4.76245">
        <ele>20</ele>
        <time>2018-03-27T16:07:01Z</time>
      </trkpt>
      <trkpt lat="48.45115" lon="-4.76275">
        <ele>21</ele>
        <time>2018-03-27T16:08:01Z</time>
      </trkpt>
      <trkpt lat="48.4512" lon="-4.76276">
        <ele>21</ele>
        <time>2018-03-27T16:09:01Z</time>
      </trkpt>
      <trkpt lat="48.45126" lon="-4.76272">
        <ele>21</ele>
        <time>2018-03-27T16:10:01Z</time>
      </trkpt>
      <trkpt lat="48.45155" lon="-4.76273">
        <ele>21</ele>
        <time>2018-03-27T16:11:01Z</time>
      </trkpt>
      <trkpt lat="48.45162" lon="-4.76269">
        <ele>21</ele>
        <time>2018-03-27T16:12:01Z</time>
      </trkpt>
      <trkpt lat="48.45166" lon="-4.76257">
        <ele>20</ele>
        <time>2018-03-27T16:13:01Z</time>
      </trkpt>
      <trkpt lat="48.45166" lon="-4.7623">
        <ele>20</ele>
        <time>2018-03-27T16:14:01Z</time>
      </trkpt>
      <trkpt lat="48.4517" lon="-4.76223">
        <ele>20</ele>
        <time>2018-03-27T16:15:01Z</time>
      </trkpt>
      <trkpt lat="48.45174" lon="-4.76222">
        <ele>21</ele>
        <time>2018-03-27T16:16:01Z</time>
      </trkpt>
      <trkpt lat="48.45189" lon="-4.76226">
        <ele>21</ele>
        <time>2018-03-27T16:17:01Z</time>
      </trkpt>
      <trkpt lat="48.45202" lon="-4.76211">
        <ele>21</ele>
        <time>2018-03-27T16:18:01Z</time>
      </trkpt>
      <trkpt lat="48.45221" lon="-4.76199">
        <ele>21</ele>
        <time>2018-03-27T16:19:01Z</time>
      </trkpt>
      <trkpt lat="48.45227" lon="-4.76191">
        <ele>21</ele>
        <time>2018-03-27T16:20:01Z</time>
      </trkpt>
      <trkpt lat="48.45236" lon="-4.76189">
        <ele>21</ele>
        <time>2018-03-27T16:21:01Z</time>
      </trkpt>
      <trkpt lat="48.45249" lon="-4.76194">
        <ele>22</ele>
        <time>2018-03-27T16:22:01Z</time>
      </trkpt>
      <trkpt lat="48.45264" lon="-4.76207">
        <ele>22</ele>
        <time>2018-03-27T16:23:01Z</time>
      </trkpt>
      <trkpt lat="48.45276" lon="-4.76213">
        <ele>22</ele>
        <time>2018-03-27T16:24:01Z</time>
      </trkpt>
      <trkpt lat="48.45287" lon="-4.76203">
        <ele>22</ele>
        <time>2018-03-27T16:25:01Z</time>
      </trkpt>
      <trkpt lat="48.45297" lon="-4.76184">
        <ele>22</ele>
        <time>2018-03-27T16:26:01Z</time>
      </trkpt>
      <trkpt lat="48.45318" lon="-4.76194">
        <ele>22</ele>
        <time>2018-03-27T16:27:01Z</time>
      </trkpt>
      <trkpt lat="48.4538" lon="-4.76206">
        <ele>23</ele>
        <time>2018-03-27T16:28:01Z</time>
      </trkpt>
      <trkpt lat="48.45383" lon="-4.76204">
        <ele>23</ele>
        <time>2018-03-27T16:29:01Z</time>
      </trkpt>
      <trkpt lat="48.45383" lon="-4.76204">
        <ele>23</ele>
        <time>2018-03-27T16:30:01Z</time>
      </trkpt>
      <trkpt lat="48.45387" lon="-4.7614">
        <ele>21</ele>
        <time>2018-03-27T16:31:01Z</time>
      </trkpt>
      <trkpt lat="48.45391" lon="-4.76137">
        <ele>21</ele>
        <time>2018-03-27T16:32:01Z</time>
      </trkpt>
      <trkpt lat="48.45395" lon="-4.7614">
        <ele>21</ele>
        <time>2018-03-27T16:33:01Z</time>
      </trkpt>
      <trkpt lat="48.45419" lon="-4.76126">
        <ele>20</ele>
        <time>2018-03-27T16:34:01Z</time>
      </trkpt>
      <trkpt lat="48.45435" lon="-4.76107">
        <ele>20</ele>
        <time>2018-03-27T16:35:01Z</time>
      </trkpt>
      <trkpt lat="48.45463" lon="-4.76097">
        <ele>20</ele>
        <time>2018-03-27T16:36:01Z</time>
      </trkpt>
      <trkpt lat="48.45469" lon="-4.76091">
        <ele>20</ele>
        <time>2018-03-27T16:37:01Z</time>
      </trkpt>
      <trkpt lat="48.45471" lon="-4.76082">
        <ele>19</ele>
        <time>2018-03-27T16:38:01Z</time>
      </trkpt>
      <trkpt lat="48.45474" lon="-4.76081">
        <ele>19</ele>
        <time>2018-03-27T16:39:01Z</time>
      </trkpt>
      <trkpt lat="48.45478" lon="-4.76086">
        <ele>20</ele>
        <time>2018-03-27T16:40:01Z</time>
      </trkpt>
      <trkpt lat="48.4549" lon="-4.76075">
        <ele>20</ele>
        <time>2018-03-27T16:41:01Z</time>
      </trkpt>
      <trkpt lat="48.45519" lon="-4.76062">
        <ele>19</ele>
        <time>2018-03-27T16:42:01Z</time>
      </trkpt>
      <trkpt lat="48.45537" lon="-4.76059">
        <ele>19</ele>
        <time>2018-03-27T16:43:01Z</time>
      </trkpt>
      <trkpt lat="48.45546" lon="-4.76061">
        <ele>19</ele>
        <time>2018-03-27T16:44:01Z</time>
      </trkpt>
      <trkpt lat="48.45554" lon="-4.76056">
        <ele>19</ele>
        <time>2018-03-27T16:45:01Z</time>
      </trkpt>
      <trkpt lat="48.45559" lon="-4.76049">
        <ele>18</ele>
        <time>2018-03-27T16:46:01Z</time>
      </trkpt>
      <trkpt lat="48.45584" lon="-4.76042">
        <ele>18</ele>
        <time>2018-03-27T16:47:01Z</time>
      </trkpt>
      <trkpt lat="48.45636" lon="-4.76036">
        <ele>17</ele>
        <time>2018-03-27T16:48:01Z</time>
      </trkpt>
      <trkpt lat="48.45636" lon="-4.76036">
        <ele>17</ele>
        <time>2018-03-27T16:49:01Z</time>
      </trkpt>
      <trkpt lat="48.45644" lon="-4.76058">
        <ele>18</ele>
        <time>2018-03-27T16:50:01Z</time>
      </trkpt>
      <trkpt lat="48.45655" lon="-4.76057">
        <ele>18</ele>
        <time>2018-03-27T16:51:01Z</time>
      </trkpt>
      <trkpt lat="48.45655" lon="-4.76057">
        <ele>18</ele>
        <time>2018-03-27T16:52:01Z</time>
      </trkpt>
      <trkpt lat="48.45661" lon="-4.76054">
        <ele>18</ele>
        <time>2018-03-27T16:53:01Z</time>
      </trkpt>
      <trkpt lat="48.45681" lon="-4.76069">
        <ele>18</ele>
        <time>2018-03-27T16:54:01Z</time>
      </trkpt>
      <trkpt lat="48.45683" lon="-4.76078">
        <ele>19</ele>
        <time>2018-03-27T16:55:01Z</time>
      </trkpt>
      <trkpt lat="48.45683" lon="-4.76078">
        <ele>19</ele>
        <time>2018-03-27T16:56:01Z</time>
      </trkpt>
      <trkpt lat="48.45675" lon="-4.76123">
        <ele>21</ele>
        <time>2018-03-27T16:57:01Z</time>
      </trkpt>
      <trkpt lat="48.45668" lon="-4.76128">
        <ele>21</ele>
        <time>2018-03-27T16:58:01Z</time>
      </trkpt>
      <trkpt lat="48.45665" lon="-4.76144">
        <ele>22</ele>
        <time>2018-03-27T16:59:01Z</time>
      </trkpt>
      <trkpt lat="48.45664" lon="-4.76156">
        <ele>23</ele>
        <time>2018-03-27T17:00:01Z</time>
      </trkpt>
      <trkpt lat="48.45666" lon="-4.76165">
        <ele>23</ele>
        <time>2018-03-27T17:01:01Z</time>
      </trkpt>
      <trkpt lat="48.45659" lon="-4.76186">
        <ele>23</ele>
        <time>2018-03-27T17:02:01Z</time>
      </trkpt>
      <trkpt lat="48.45647" lon="-4.76205">
        <ele>24</ele>
        <time>2018-03-27T17:03:01Z</time>
      </trkpt>
      <trkpt lat="48.45645" lon="-4.76223">
        <ele>24</ele>
        <time>2018-03-27T17:04:01Z</time>
      </trkpt>
      <trkpt lat="48.45647" lon="-4.7626">
        <ele>24</ele>
        <time>2018-03-27T17:05:01Z</time>
      </trkpt>
      <trkpt lat="48.45645" lon="-4.76269">
        <ele>24</ele>
        <time>2018-03-27T17:06:01Z</time>
      </trkpt>
      <trkpt lat="48.45657" lon="-4.7626">
        <ele>24</ele>
        <time>2018-03-27T17:07:01Z</time>
      </trkpt>
      <trkpt lat="48.45662" lon="-4.76258">
        <ele>23</ele>
        <time>2018-03-27T17:08:01Z</time>
      </trkpt>
      <trkpt lat="48.45682" lon="-4.7626">
        <ele>23</ele>
        <time>2018-03-27T17:09:01Z</time>
      </trkpt>
      <trkpt lat="48.457" lon="-4.76266">
        <ele>24</ele>
        <time>2018-03-27T17:10:01Z</time>
      </trkpt>
      <trkpt lat="48.45699" lon="-4.76276">
        <ele>24</ele>
        <time>2018-03-27T17:11:01Z</time>
      </trkpt>
      <trkpt lat="48.45704" lon="-4.76276">
        <ele>24</ele>
        <time>2018-03-27T17:12:01Z</time>
      </trkpt>
      <trkpt lat="48.45705" lon="-4.76292">
        <ele>24</ele>
        <time>2018-03-27T17:13:01Z</time>
      </trkpt>
      <trkpt lat="48.45716" lon="-4.76273">
        <ele>24</ele>
        <time>2018-03-27T17:14:01Z</time>
      </trkpt>
      <trkpt lat="48.45724" lon="-4.76264">
        <ele>24</ele>
        <time>2018-03-27T17:15:01Z</time>
      </trkpt>
      <trkpt lat="48.45735" lon="-4.76261">
        <ele>23</ele>
        <time>2018-03-27T17:16:01Z</time>
      </trkpt>
      <trkpt lat="48.45741" lon="-4.76257">
        <ele>23</ele>
        <time>2018-03-27T17:17:01Z</time>
      </trkpt>
      <trkpt lat="48.45756" lon="-4.76241">
        <ele>23</ele>
        <time>2018-03-27T17:18:01Z</time>
      </trkpt>
      <trkpt lat="48.45761" lon="-4.76233">
        <ele>22</ele>
        <time>2018-03-27T17:19:01Z</time>
      </trkpt>
      <trkpt lat="48.45773" lon="-4.76226">
        <ele>22</ele>
        <time>2018-03-27T17:20:01Z</time>
      </trkpt>
      <trkpt lat="48.45792" lon="-4.76199">
        <ele>21</ele>
        <time>2018-03-27T17:21:01Z</time>
      </trkpt>
      <trkpt lat="48.4582" lon="-4.76169">
        <ele>20</ele>
        <time>2018-03-27T17:22:01Z</time>
      </trkpt>
      <trkpt lat="48.4582" lon="-4.76169">
        <ele>20</ele>
        <time>2018-03-27T17:23:01Z</time>
      </trkpt>
      <trkpt lat="48.45832" lon="-4.76163">
        <ele>20</ele>
        <time>2018-03-27T17:24:01Z</time>
      </trkpt>
      <trkpt lat="48.45861" lon="-4.7612">
        <ele>18</ele>
        <time>2018-03-27T17:25:01Z</time>
      </trkpt>
      <trkpt lat="48.45868" lon="-4.76114">
        <ele>18</ele>
        <time>2018-03-27T17:26:01Z</time>
      </trkpt>
      <trkpt lat="48.45881" lon="-4.76095">
        <ele>17</ele>
        <time>2018-03-27T17:27:01Z</time>
      </trkpt>
      <trkpt lat="48.45881" lon="-4.76095">
        <ele>17</ele>
        <time>2018-03-27T17:28:01Z</time>
      </trkpt>
      <trkpt lat="48.45894" lon="-4.76083">
        <ele>16</ele>
        <time>2018-03-27T17:29:01Z</time>
      </trkpt>
      <trkpt lat="48.45906" lon="-4.76079">
        <ele>16</ele>
        <time>2018-03-27T17:30:01Z</time>
      </trkpt>
      <trkpt lat="48.45906" lon="-4.76079">
        <ele>16</ele>
        <time>2018-03-27T17:31:01Z</time>
      </trkpt>
      <trkpt lat="48.45913" lon="-4.76077">
        <ele>16</ele>
        <time>2018-03-27T17:32:01Z</time>
      </trkpt>
      <trkpt lat="48.45916" lon="-4.76078">
        <ele>17</ele>
        <time>2018-03-27T17:33:01Z</time>
      </trkpt>
      <trkpt lat="48.45921" lon="-4.76074">
        <ele>17</ele>
        <time>2018-03-27T17:34:01Z</time>
      </trkpt>
      <trkpt lat="48.45941" lon="-4.76071">
        <ele>17</ele>
        <time>2018-03-27T17:35:01Z</time>
      </trkpt>
      <trkpt lat="48.45954" lon="-4.76059">
        <ele>17</ele>
        <time>2018-03-27T17:36:01Z</time>
      </trkpt>
      <trkpt lat="48.45954" lon="-4.76059">
        <ele>17</ele>
        <time>2018-03-27T17:37:01Z</time>
      </trkpt>
      <trkpt lat="48.45966" lon="-4.76047">
        <ele>16</ele>
        <time>2018-03-27T17:38:01Z</time>
      </trkpt>
      <trkpt lat="48.45981" lon="-4.76036">
        <ele>15</ele>
        <time>2018-03-27T17:39:01Z</time>
      </trkpt>
      <trkpt lat="48.45977" lon="-4.76019">
        <ele>13</ele>
        <time>2018-03-27T17:40:01Z</time>
      </trkpt>
      <trkpt lat="48.45977" lon="-4.76019">
        <ele>13</ele>
        <time>2018-03-27T17:41:01Z</time>
      </trkpt>
      <trkpt lat="48.45979" lon="-4.76011">
        <ele>12</ele>
        <time>2018-03-27T17:42:01Z</time>
      </trkpt>
      <trkpt lat="48.45969" lon="-4.7597">
        <ele>11</ele>
        <time>2018-03-27T17:43:01Z</time>
      </trkpt>
      <trkpt lat="48.45969" lon="-4.75956">
        <ele>11</ele>
        <time>2018-03-27T17:44:01Z</time>
      </trkpt>
      <trkpt lat="48.45971" lon="-4.75947">
        <ele>12</ele>
        <time>2018-03-27T17:45:01Z</time>
      </trkpt>
      <trkpt lat="48.45977" lon="-4.7594">
        <ele>11</ele>
        <time>2018-03-27T17:46:01Z</time>
      </trkpt>
      <trkpt lat="48.45992" lon="-4.75932">
        <ele>11</ele>
        <time>2018-03-27T17:47:01Z</time>
      </trkpt>
      <trkpt lat="48.45995" lon="-4.75927">
        <ele>11</ele>
        <time>2018-03-27T17:48:01Z</time>
      </trkpt>
      <trkpt lat="48.45996" lon="-4.7592">
        <ele>11</ele>
        <time>2018-03-27T17:49:01Z</time>
      </trkpt>
      <trkpt lat="48.45994" lon="-4.75911">
        <ele>12</ele>
        <time>2018-03-27T17:50:01Z</time>
      </trkpt>
      <trkpt lat="48.45982" lon="-4.759">
        <ele>13</ele>
        <time>2018-03-27T17:51:01Z</time>
      </trkpt>
      <trkpt lat="48.45977" lon="-4.75891">
        <ele>14</ele>
        <time>2018-03-27T17:52:01Z</time>
      </trkpt>
      <trkpt lat="48.45976" lon="-4.75883">
        <ele>15</ele>
        <time>2018-03-27T17:53:01Z</time>
      </trkpt>
      <trkpt lat="48.45982" lon="-4.75802">
        <ele>21</ele>
        <time>2018-03-27T17:54:01Z</time>
      </trkpt>
      <trkpt lat="48.45982" lon="-4.75777">
        <ele>23</ele>
        <time>2018-03-27T17:55:01Z</time>
      </trkpt>
      <trkpt lat="48.4598" lon="-4.75758">
        <ele>24</ele>
        <time>2018-03-27T17:56:01Z</time>
      </trkpt>
      <trkpt lat="48.45964" lon="-4.75728">
        <ele>27</ele>
        <time>2018-03-27T17:57:01Z</time>
      </trkpt>
      <trkpt lat="48.45939" lon="-4.75691">
        <ele>30</ele>
        <time>2018-03-27T17:58:01Z</time>
      </trkpt>
      <trkpt lat="48.45933" lon="-4.75676">
        <ele>31</ele>
        <time>2018-03-27T17:59:01Z</time>
      </trkpt>
      <trkpt lat="48.45929" lon="-4.75657">
        <ele>31</ele>
        <time>2018-03-27T18:00:01Z</time>
      </trkpt>
      <trkpt lat="48.45929" lon="-4.75633">
        <ele>32</ele>
        <time>2018-03-27T18:01:01Z</time>
      </trkpt>
      <trkpt lat="48.45935" lon="-4.75562">
        <ele>34</ele>
        <time>2018-03-27T18:02:01Z</time>
      </trkpt>
      <trkpt lat="48.45949" lon="-4.75421">
        <ele>39</ele>
        <time>2018-03-27T18:03:01Z</time>
      </trkpt>
      <trkpt lat="48.45947" lon="-4.75389">
        <ele>40</ele>
        <time>2018-03-27T18:04:01Z</time>
      </trkpt>
      <trkpt lat="48.45939" lon="-4.75323">
        <ele>42</ele>
        <time>2018-03-27T18:05:01Z</time>
      </trkpt>
      <trkpt lat="48.45933" lon="-4.75307">
        <ele>43</ele>
        <time>2018-03-27T18:06:01Z</time>
      </trkpt>
      <trkpt lat="48.45926" lon="-4.75305">
        <ele>43</ele>
        <time>2018-03-27T18:07:01Z</time>
      </trkpt>
      <trkpt lat="48.45904" lon="-4.75309">
        <ele>44</ele>
        <time>2018-03-27T18:08:01Z</time>
      </trkpt>
      <trkpt lat="48.45899" lon="-4.75307">
        <ele>44</ele>
        <time>2018-03-27T18:09:01Z</time>
      </trkpt>
      <trkpt lat="48.45897" lon="-4.75298">
        <ele>44</ele>
        <time>2018-03-27T18:10:01Z</time>
      </trkpt>
      <trkpt lat="48.45823" lon="-4.7455">
        <ele>57</ele>
        <time>2018-03-27T18:11:01Z</time>
      </trkpt>
      <trkpt lat="48.45837" lon="-4.74547">
        <ele>57</ele>
        <time>2018-03-27T18:12:01Z</time>
      </trkpt>
      <trkpt lat="48.45837" lon="-4.74547">
        <ele>57</ele>
        <time>2018-03-27T18:13:01Z</time>
      </trkpt>
      <trkpt lat="48.4599" lon="-4.74505">
        <ele>56</ele>
        <time>2018-03-27T18:14:01Z</time>
      </trkpt>
      <trkpt lat="48.46085" lon="-4.74466">
        <ele>55</ele>
        <time>2018-03-27T18:15:01Z</time>
      </trkpt>
      <trkpt lat="48.46099" lon="-4.74467">
        <ele>55</ele>
        <time>2018-03-27T18:16:01Z</time>
      </trkpt>
      <trkpt lat="48.46113" lon="-4.74474">
        <ele>55</ele>
        <time>2018-03-27T18:17:01Z</time>
      </trkpt>
      <trkpt lat="48.46133" lon="-4.74489">
        <ele>54</ele>
        <time>2018-03-27T18:18:01Z</time>
      </trkpt>
      <trkpt lat="48.46228" lon="-4.74591">
        <ele>46</ele>
        <time>2018-03-27T18:19:01Z</time>
      </trkpt>
      <trkpt lat="48.46256" lon="-4.74617">
        <ele>44</ele>
        <time>2018-03-27T18:20:01Z</time>
      </trkpt>
      <trkpt lat="48.46271" lon="-4.74625">
        <ele>42</ele>
        <time>2018-03-27T18:21:01Z</time>
      </trkpt>
      <trkpt lat="48.46296" lon="-4.7463">
        <ele>39</ele>
        <time>2018-03-27T18:22:01Z</time>
      </trkpt>
      <trkpt lat="48.4651" lon="-4.74644">
        <ele>31</ele>
        <time>2018-03-27T18:23:01Z</time>
      </trkpt>
      <trkpt lat="48.4654" lon="-4.74641">
        <ele>31</ele>
        <time>2018-03-27T18:24:01Z</time>
      </trkpt>
      <trkpt lat="48.46551" lon="-4.74636">
        <ele>32</ele>
        <time>2018-03-27T18:25:01Z</time>
      </trkpt>
      <trkpt lat="48.46625" lon="-4.74599">
        <ele>32</ele>
        <time>2018-03-27T18:26:01Z</time>
      </trkpt>
      <trkpt lat="48.4663" lon="-4.74592">
        <ele>32</ele>
        <time>2018-03-27T18:27:01Z</time>
      </trkpt>
      <trkpt lat="48.46632" lon="-4.74585">
        <ele>32</ele>
        <time>2018-03-27T18:28:01Z</time>
      </trkpt>
      <trkpt lat="48.46632" lon="-4.74585">
        <ele>32</ele>
        <time>2018-03-27T18:29:01Z</time>
      </trkpt>
      <trkpt lat="48.46651" lon="-4.74525">
        <ele>31</ele>
        <time>2018-03-27T18:30:01Z</time>
      </trkpt>
      <trkpt lat="48.46649" lon="-4.74487">
        <ele>30</ele>
        <time>2018-03-27T18:31:01Z</time>
      </trkpt>
      <trkpt lat="48.46655" lon="-4.74277">
        <ele>21</ele>
        <time>2018-03-27T18:32:01Z</time>
      </trkpt>
      <trkpt lat="48.46653" lon="-4.74248">
        <ele>20</ele>
        <time>2018-03-27T18:33:01Z</time>
      </trkpt>
      <trkpt lat="48.46646" lon="-4.7423">
        <ele>21</ele>
        <time>2018-03-27T18:34:01Z</time>
      </trkpt>
      <trkpt lat="48.46639" lon="-4.7422">
        <ele>21</ele>
        <time>2018-03-27T18:35:01Z</time>
      </trkpt>
      <trkpt lat="48.46579" lon="-4.74146">
        <ele>25</ele>
        <time>2018-03-27T18:36:01Z</time>
      </trkpt>
      <trkpt lat="48.46562" lon="-4.74122">
        <ele>25</ele>
        <time>2018-03-27T18:37:01Z</time>
      </trkpt>
      <trkpt lat="48.46549" lon="-4.74092">
        <ele>26</ele>
        <time>2018-03-27T18:38:01Z</time>
      </trkpt>
      <trkpt lat="48.46538" lon="-4.74051">
        <ele>28</ele>
        <time>2018-03-27T18:39:01Z</time>
      </trkpt>
      <trkpt lat="48.46532" lon="-4.74012">
        <ele>29</ele>
        <time>2018-03-27T18:40:01Z</time>
      </trkpt>
      <trkpt lat="48.46531" lon="-4.7399">
        <ele>30</ele>
        <time>2018-03-27T18:41:01Z</time>
      </trkpt>
      <trkpt lat="48.46531" lon="-4.73973">
        <ele>31</ele>
        <time>2018-03-27T18:42:01Z</time>
      </trkpt>
      <trkpt lat="48.46558" lon="-4.73849">
        <ele>34</ele>
        <time>2018-03-27T18:43:01Z</time>
      </trkpt>
      <trkpt lat="48.46594" lon="-4.73845">
        <ele>33</ele>
        <time>2018-03-27T18:44:01Z</time>
      </trkpt>
      <trkpt lat="48.46618" lon="-4.73837">
        <ele>32</ele>
        <time>2018-03-27T18:45:01Z</time>
      </trkpt>
      <trkpt lat="48.46691" lon="-4.73799">
        <ele>31</ele>
        <time>2018-03-27T18:46:01Z</time>
      </trkpt>
      <trkpt lat="48.46723" lon="-4.73779">
        <ele>31</ele>
        <time>2018-03-27T18:47:01Z</time>
      </trkpt>
      <trkpt lat="48.46733" lon="-4.73759">
        <ele>31</ele>
        <time>2018-03-27T18:48:01Z</time>
      </trkpt>
      <trkpt lat="48.46745" lon="-4.73742">
        <ele>31</ele>
        <time>2018-03-27T18:49:01Z</time>
      </trkpt>
      <trkpt lat="48.46799" lon="-4.73717">
        <ele>29</ele>
        <time>2018-03-27T18:50:01Z</time>
      </trkpt>
      <trkpt lat="48.46886" lon="-4.73691">
        <ele>25</ele>
        <time>2018-03-27T18:51:01Z</time>
      </trkpt>
      <trkpt lat="48.46896" lon="-4.73693">
        <ele>25</ele>
        <time>2018-03-27T18:52:01Z</time>
      </trkpt>
      <trkpt lat="48.46894" lon="-4.73668">
        <ele>25</ele>
        <time>2018-03-27T18:53:01Z</time>
      </trkpt>
      <trkpt lat="48.46896" lon="-4.73658">
        <ele>25</ele>
        <time>2018-03-27T18:54:01Z</time>
      </trkpt>
      <trkpt lat="48.469" lon="-4.7365">
        <ele>24</ele>
        <time>2018-03-27T18:55:01Z</time>
      </trkpt>
      <trkpt lat="48.46915" lon="-4.73635">
        <ele>24</ele>
        <time>2018-03-27T18:56:01Z</time>
      </trkpt>
      <trkpt lat="48.46968" lon="-4.73621">
        <ele>19</ele>
        <time>2018-03-27T18:57:01Z</time>
      </trkpt>
      <trkpt lat="48.46977" lon="-4.73611">
        <ele>19</ele>
        <time>2018-03-27T18:58:01Z</time>
      </trkpt>
      <trkpt lat="48.4698" lon="-4.736">
        <ele>19</ele>
        <time>2018-03-27T18:59:01Z</time>
      </trkpt>
      <trkpt lat="48.46994" lon="-4.73441">
        <ele>22</ele>
        <time>2018-03-27T19:00:01Z</time>
      </trkpt>
      <trkpt lat="48.46996" lon="-4.73428">
        <ele>22</ele>
        <time>2018-03-27T19:01:01Z</time>
      </trkpt>
      <trkpt lat="48.47001" lon="-4.73417">
        <ele>22</ele>
        <time>2018-03-27T19:02:01Z</time>
      </trkpt>
      <trkpt lat="48.47007" lon="-4.73418">
        <ele>22</ele>
        <time>2018-03-27T19:03:01Z</time>
      </trkpt>
      <trkpt lat="48.47043" lon="-4.73443">
        <ele>20</ele>
        <time>2018-03-27T19:04:01Z</time>
      </trkpt>
      <trkpt lat="48.47169" lon="-4.73477">
        <ele>9</ele>
        <time>2018-03-27T19:05:01Z</time>
      </trkpt>
      <trkpt lat="48.47169" lon="-4.73477">
        <ele>9</ele>
        <time>2018-03-27T19:06:01Z</time>
      </trkpt>
      <trkpt lat="48.4718" lon="-4.7348">
        <ele>8</ele>
        <time>2018-03-27T19:07:01Z</time>
      </trkpt>
      <trkpt lat="48.47185" lon="-4.73506">
        <ele>8</ele>
        <time>2018-03-27T19:08:01Z</time>
      </trkpt>
      <trkpt lat="48.47191" lon="-4.73516">
        <ele>7</ele>
        <time>2018-03-27T19:09:01Z</time>
      </trkpt>
      <trkpt lat="48.47195" lon="-4.73536">
        <ele>6</ele>
        <time>2018-03-27T19:10:01Z</time>
      </trkpt>
      <trkpt lat="48.47195" lon="-4.73556">
        <ele>6</ele>
        <time>2018-03-27T19:11:01Z</time>
      </trkpt>
      <trkpt lat="48.4719" lon="-4.73593">
        <ele>6</ele>
        <time>2018-03-27T19:12:01Z</time>
      </trkpt>
      <trkpt lat="48.47193" lon="-4.73625">
        <ele>4</ele>
        <time>2018-03-27T19:13:01Z</time>
      </trkpt>
      <trkpt lat="48.47191" lon="-4.7363">
        <ele>4</ele>
        <time>2018-03-27T19:14:01Z</time>
      </trkpt>
      <trkpt lat="48.47168" lon="-4.73621">
        <ele>6</ele>
        <time>2018-03-27T19:15:01Z</time>
      </trkpt>
      <trkpt lat="48.4716" lon="-4.73625">
        <ele>6</ele>
        <time>2018-03-27T19:16:01Z</time>
      </trkpt>
      <trkpt lat="48.47146" lon="-4.73627">
        <ele>6</ele>
        <time>2018-03-27T19:17:01Z</time>
      </trkpt>
      <trkpt lat="48.47109" lon="-4.73641">
        <ele>7</ele>
        <time>2018-03-27T19:18:01Z</time>
      </trkpt>
      <trkpt lat="48.47095" lon="-4.73652">
        <ele>6</ele>
        <time>2018-03-27T19:19:01Z</time>
      </trkpt>
      <trkpt lat="48.4708" lon="-4.73673">
        <ele>5</ele>
        <time>2018-03-27T19:20:01Z</time>
      </trkpt>
      <trkpt lat="48.47063" lon="-4.73692">
        <ele>7</ele>
        <time>2018-03-27T19:21:01Z</time>
      </trkpt>
      <trkpt lat="48.47061" lon="-4.73701">
        <ele>7</ele>
        <time>2018-03-27T19:22:01Z</time>
      </trkpt>
      <trkpt lat="48.47064" lon="-4.73729">
        <ele>6</ele>
        <time>2018-03-27T19:23:01Z</time>
      </trkpt>
      <trkpt lat="48.47068" lon="-4.73749">
        <ele>5</ele>
        <time>2018-03-27T19:24:01Z</time>
      </trkpt>
      <trkpt lat="48.47081" lon="-4.73783">
        <ele>5</ele>
        <time>2018-03-27T19:25:01Z</time>
      </trkpt>
      <trkpt lat="48.47087" lon="-4.73789">
        <ele>4</ele>
        <time>2018-03-27T19:26:01Z</time>
      </trkpt>
      <trkpt lat="48.47095" lon="-4.73789">
        <ele>4</ele>
        <time>2018-03-27T19:27:01Z</time>
      </trkpt>
      <trkpt lat="48.47097" lon="-4.73796">
        <ele>4</ele>
        <time>2018-03-27T19:28:01Z</time>
      </trkpt>
      <trkpt lat="48.47095" lon="-4.73831">
        <ele>4</ele>
        <time>2018-03-27T19:29:01Z</time>
      </trkpt>
      <trkpt lat="48.47104" lon="-4.7388">
        <ele>6</ele>
        <time>2018-03-27T19:30:01Z</time>
      </trkpt>
      <trkpt lat="48.47103" lon="-4.73902">
        <ele>6</ele>
        <time>2018-03-27T19:31:01Z</time>
      </trkpt>
      <trkpt lat="48.47106" lon="-4.7392">
        <ele>7</ele>
        <time>2018-03-27T19:32:01Z</time>
      </trkpt>
      <trkpt lat="48.471" lon="-4.73946">
        <ele>7</ele>
        <time>2018-03-27T19:33:01Z</time>
      </trkpt>
      <trkpt lat="48.47089" lon="-4.7396">
        <ele>8</ele>
        <time>2018-03-27T19:34:01Z</time>
      </trkpt>
      <trkpt lat="48.47077" lon="-4.73965">
        <ele>8</ele>
        <time>2018-03-27T19:35:01Z</time>
      </trkpt>
      <trkpt lat="48.47036" lon="-4.73977">
        <ele>11</ele>
        <time>2018-03-27T19:36:01Z</time>
      </trkpt>
      <trkpt lat="48.4701" lon="-4.74003">
        <ele>12</ele>
        <time>2018-03-27T19:37:01Z</time>
      </trkpt>
      <trkpt lat="48.47006" lon="-4.74017">
        <ele>13</ele>
        <time>2018-03-27T19:38:01Z</time>
      </trkpt>
      <trkpt lat="48.47032" lon="-4.7404">
        <ele>13</ele>
        <time>2018-03-27T19:39:01Z</time>
      </trkpt>
      <trkpt lat="48.47084" lon="-4.74055">
        <ele>12</ele>
        <time>2018-03-27T19:40:01Z</time>
      </trkpt>
      <trkpt lat="48.4711" lon="-4.74051">
        <ele>9</ele>
        <time>2018-03-27T19:41:01Z</time>
      </trkpt>
      <trkpt lat="48.47151" lon="-4.7406">
        <ele>5</ele>
        <time>2018-03-27T19:42:01Z</time>
      </trkpt>
      <trkpt lat="48.4717" lon="-4.74075">
        <ele>4</ele>
        <time>2018-03-27T19:43:01Z</time>
      </trkpt>
      <trkpt lat="48.4718" lon="-4.74113">
        <ele>5</ele>
        <time>2018-03-27T19:44:01Z</time>
      </trkpt>
      <trkpt lat="48.47186" lon="-4.74191">
        <ele>7</ele>
        <time>2018-03-27T19:45:01Z</time>
      </trkpt>
      <trkpt lat="48.47195" lon="-4.74271">
        <ele>8</ele>
        <time>2018-03-27T19:46:01Z</time>
      </trkpt>
      <trkpt lat="48.47206" lon="-4.74304">
        <ele>8</ele>
        <time>2018-03-27T19:47:01Z</time>
      </trkpt>
      <trkpt lat="48.47209" lon="-4.74324">
        <ele>8</ele>
        <time>2018-03-27T19:48:01Z</time>
      </trkpt>
      <trkpt lat="48.47202" lon="-4.74357">
        <ele>8</ele>
        <time>2018-03-27T19:49:01Z</time>
      </trkpt>
      <trkpt lat="48.47183" lon="-4.74421">
        <ele>7</ele>
        <time>2018-03-27T19:50:01Z</time>
      </trkpt>
      <trkpt lat="48.47173" lon="-4.74506">
        <ele>5</ele>
        <time>2018-03-27T19:51:01Z</time>
      </trkpt>
      <trkpt lat="48.4716" lon="-4.74563">
        <ele>6</ele>
        <time>2018-03-27T19:52:01Z</time>
      </trkpt>
      <trkpt lat="48.47143" lon="-4.74624">
        <ele>5</ele>
        <time>2018-03-27T19:53:01Z</time>
      </trkpt>
      <trkpt lat="48.47133" lon="-4.74646">
        <ele>5</ele>
        <time>2018-03-27T19:54:01Z</time>
      </trkpt>
      <trkpt lat="48.47122" lon="-4.74656">
        <ele>5</ele>
        <time>2018-03-27T19:55:01Z</time>
      </trkpt>
      <trkpt lat="48.47097" lon="-4.74663">
        <ele>6</ele>
        <time>2018-03-27T19:56:01Z</time>
      </trkpt>
      <trkpt lat="48.47087" lon="-4.74664">
        <ele>7</ele>
        <time>2018-03-27T19:57:01Z</time>
      </trkpt>
      <trkpt lat="48.47076" lon="-4.74668">
        <ele>7</ele>
        <time>2018-03-27T19:58:01Z</time>
      </trkpt>
      <trkpt lat="48.47068" lon="-4.74675">
        <ele>8</ele>
        <time>2018-03-27T19:59:01Z</time>
      </trkpt>
      <trkpt lat="48.4706" lon="-4.74687">
        <ele>8</ele>
        <time>2018-03-27T20:00:01Z</time>
      </trkpt>
      <trkpt lat="48.47059" lon="-4.74718">
        <ele>7</ele>
        <time>2018-03-27T20:01:01Z</time>
      </trkpt>
      <trkpt lat="48.4704" lon="-4.74737">
        <ele>8</ele>
        <time>2018-03-27T20:02:01Z</time>
      </trkpt>
      <trkpt lat="48.4704" lon="-4.74737">
        <ele>8</ele>
        <time>2018-03-27T20:03:01Z</time>
      </trkpt>
      <trkpt lat="48.47024" lon="-4.74758">
        <ele>10</ele>
        <time>2018-03-27T20:04:01Z</time>
      </trkpt>
      <trkpt lat="48.47032" lon="-4.74775">
        <ele>9</ele>
        <time>2018-03-27T20:05:01Z</time>
      </trkpt>
      <trkpt lat="48.47045" lon="-4.74782">
        <ele>8</ele>
        <time>2018-03-27T20:06:01Z</time>
      </trkpt>
      <trkpt lat="48.47081" lon="-4.74786">
        <ele>5</ele>
        <time>2018-03-27T20:07:01Z</time>
      </trkpt>
      <trkpt lat="48.47089" lon="-4.74792">
        <ele>5</ele>
        <time>2018-03-27T20:08:01Z</time>
      </trkpt>
      <trkpt lat="48.47093" lon="-4.74804">
        <ele>5</ele>
        <time>2018-03-27T20:09:01Z</time>
      </trkpt>
      <trkpt lat="48.47118" lon="-4.74845">
        <ele>5</ele>
        <time>2018-03-27T20:10:01Z</time>
      </trkpt>
      <trkpt lat="48.47118" lon="-4.7486">
        <ele>5</ele>
        <time>2018-03-27T20:11:01Z</time>
      </trkpt>
      <trkpt lat="48.4711" lon="-4.74886">
        <ele>6</ele>
        <time>2018-03-27T20:12:01Z</time>
      </trkpt>
      <trkpt lat="48.47109" lon="-4.74901">
        <ele>6</ele>
        <time>2018-03-27T20:13:01Z</time>
      </trkpt>
      <trkpt lat="48.47116" lon="-4.74923">
        <ele>5</ele>
        <time>2018-03-27T20:14:01Z</time>
      </trkpt>
      <trkpt lat="48.47122" lon="-4.74947">
        <ele>5</ele>
        <time>2018-03-27T20:15:01Z</time>
      </trkpt>
      <trkpt lat="48.47122" lon="-4.74968">
        <ele>5</ele>
        <time>2018-03-27T20:16:01Z</time>
      </trkpt>
      <trkpt lat="48.47124" lon="-4.74994">
        <ele>5</ele>
        <time>2018-03-27T20:17:01Z</time>
      </trkpt>
      <trkpt lat="48.47123" lon="-4.75008">
        <ele>5</ele>
        <time>2018-03-27T20:18:01Z</time>
      </trkpt>
      <trkpt lat="48.47106" lon="-4.75052">
        <ele>5</ele>
        <time>2018-03-27T20:19:01Z</time>
      </trkpt>
      <trkpt lat="48.47092" lon="-4.75063">
        <ele>6</ele>
        <time>2018-03-27T20:20:01Z</time>
      </trkpt>
      <trkpt lat="48.4708" lon="-4.75069">
        <ele>7</ele>
        <time>2018-03-27T20:21:01Z</time>
      </trkpt>
      <trkpt lat="48.47064" lon="-4.75106">
        <ele>7</ele>
        <time>2018-03-27T20:22:01Z</time>
      </trkpt>
      <trkpt lat="48.47054" lon="-4.75105">
        <ele>8</ele>
        <time>2018-03-27T20:23:01Z</time>
      </trkpt>
      <trkpt lat="48.47047" lon="-4.75108">
        <ele>9</ele>
        <time>2018-03-27T20:24:01Z</time>
      </trkpt>
      <trkpt lat="48.47045" lon="-4.75138">
        <ele>8</ele>
        <time>2018-03-27T20:25:01Z</time>
      </trkpt>
      <trkpt lat="48.47051" lon="-4.75153">
        <ele>7</ele>
        <time>2018-03-27T20:26:01Z</time>
      </trkpt>
      <trkpt lat="48.47058" lon="-4.75162">
        <ele>6</ele>
        <time>2018-03-27T20:27:01Z</time>
      </trkpt>
      <trkpt lat="48.47063" lon="-4.75165">
        <ele>5</ele>
        <time>2018-03-27T20:28:01Z</time>
      </trkpt>
      <trkpt lat="48.47058" lon="-4.75178">
        <ele>5</ele>
        <time>2018-03-27T20:29:01Z</time>
      </trkpt>
      <trkpt lat="48.47018" lon="-4.75219">
        <ele>6</ele>
        <time>2018-03-27T20:30:01Z</time>
      </trkpt>
      <trkpt lat="48.47012" lon="-4.75234">
        <ele>6</ele>
        <time>2018-03-27T20:31:01Z</time>
      </trkpt>
      <trkpt lat="48.47017" lon="-4.75272">
        <ele>4</ele>
        <time>2018-03-27T20:32:01Z</time>
      </trkpt>
      <trkpt lat="48.47016" lon="-4.75297">
        <ele>3</ele>
        <time>2018-03-27T20:33:01Z</time>
      </trkpt>
      <trkpt lat="48.47011" lon="-4.75319">
        <ele>2</ele>
        <time>2018-03-27T20:34:01Z</time>
      </trkpt>
      <trkpt lat="48.47004" lon="-4.75321">
        <ele>2</ele>
        <time>2018-03-27T20:35:01Z</time>
      </trkpt>
      <trkpt lat="48.46968" lon="-4.75301">
        <ele>4</ele>
        <time>2018-03-27T20:36:01Z</time>
      </trkpt>
      <trkpt lat="48.46948" lon="-4.753">
        <ele>4</ele>
        <time>2018-03-27T20:37:01Z</time>
      </trkpt>
      <trkpt lat="48.46934" lon="-4.75292">
        <ele>5</ele>
        <time>2018-03-27T20:38:01Z</time>
      </trkpt>
      <trkpt lat="48.46891" lon="-4.75286">
        <ele>6</ele>
        <time>2018-03-27T20:39:01Z</time>
      </trkpt>
      <trkpt lat="48.4688" lon="-4.75289">
        <ele>6</ele>
        <time>2018-03-27T20:40:01Z</time>
      </trkpt>
      <trkpt lat="48.46865" lon="-4.75282">
        <ele>6</ele>
        <time>2018-03-27T20:41:01Z</time>
      </trkpt>
      <trkpt lat="48.46854" lon="-4.75291">
        <ele>6</ele>
        <time>2018-03-27T20:42:01Z</time>
      </trkpt>
      <trkpt lat="48.46844" lon="-4.75291">
        <ele>6</ele>
        <time>2018-03-27T20:43:01Z</time>
      </trkpt>
      <trkpt lat="48.46836" lon="-4.75301">
        <ele>5</ele>
        <time>2018-03-27T20:44:01Z</time>
      </trkpt>
      <trkpt lat="48.46827" lon="-4.75307">
        <ele>5</ele>
        <time>2018-03-27T20:45:01Z</time>
      </trkpt>
      <trkpt lat="48.46818" lon="-4.75305">
        <ele>5</ele>
        <time>2018-03-27T20:46:01Z</time>
      </trkpt>
      <trkpt lat="48.46808" lon="-4.75307">
        <ele>5</ele>
        <time>2018-03-27T20:47:01Z</time>
      </trkpt>
      <trkpt lat="48.46781" lon="-4.75325">
        <ele>5</ele>
        <time>2018-03-27T20:48:01Z</time>
      </trkpt>
      <trkpt lat="48.46741" lon="-4.75358">
        <ele>4</ele>
        <time>2018-03-27T20:49:01Z</time>
      </trkpt>
      <trkpt lat="48.4673" lon="-4.75374">
        <ele>4</ele>
        <time>2018-03-27T20:50:01Z</time>
      </trkpt>
      <trkpt lat="48.46725" lon="-4.75385">
        <ele>3</ele>
        <time>2018-03-27T20:51:01Z</time>
      </trkpt>
      <trkpt lat="48.46707" lon="-4.75404">
        <ele>3</ele>
        <time>2018-03-27T20:52:01Z</time>
      </trkpt>
      <trkpt lat="48.46707" lon="-4.75404">
        <ele>3</ele>
        <time>2018-03-27T20:53:01Z</time>
      </trkpt>
      <trkpt lat="48.46701" lon="-4.7541">
        <ele>3</ele>
        <time>2018-03-27T20:54:01Z</time>
      </trkpt>
      <trkpt lat="48.46694" lon="-4.75429">
        <ele>3</ele>
        <time>2018-03-27T20:55:01Z</time>
      </trkpt>
      <trkpt lat="48.46689" lon="-4.75434">
        <ele>3</ele>
        <time>2018-03-27T20:56:01Z</time>
      </trkpt>
      <trkpt lat="48.46681" lon="-4.75421">
        <ele>3</ele>
        <time>2018-03-27T20:57:01Z</time>
      </trkpt>
      <trkpt lat="48.46672" lon="-4.75415">
        <ele>4</ele>
        <time>2018-03-27T20:58:01Z</time>
      </trkpt>
      <trkpt lat="48.46663" lon="-4.75396">
        <ele>5</ele>
        <time>2018-03-27T20:59:01Z</time>
      </trkpt>
      <trkpt lat="48.46646" lon="-4.75385">
        <ele>5</ele>
        <time>2018-03-27T21:00:01Z</time>
      </trkpt>
      <trkpt lat="48.46618" lon="-4.75354">
        <ele>5</ele>
        <time>2018-03-27T21:01:01Z</time>
      </trkpt>
      <trkpt lat="48.46606" lon="-4.75347">
        <ele>5</ele>
        <time>2018-03-27T21:02:01Z</time>
      </trkpt>
      <trkpt lat="48.46578" lon="-4.75336">
        <ele>5</ele>
        <time>2018-03-27T21:03:01Z</time>
      </trkpt>
      <trkpt lat="48.46571" lon="-4.75324">
        <ele>6</ele>
        <time>2018-03-27T21:04:01Z</time>
      </trkpt>
      <trkpt lat="48.46564" lon="-4.75318">
        <ele>6</ele>
        <time>2018-03-27T21:05:01Z</time>
      </trkpt>
      <trkpt lat="48.46554" lon="-4.75318">
        <ele>6</ele>
        <time>2018-03-27T21:06:01Z</time>
      </trkpt>
      <trkpt lat="48.46533" lon="-4.75326">
        <ele>6</ele>
        <time>2018-03-27T21:07:01Z</time>
      </trkpt>
      <trkpt lat="48.46513" lon="-4.75326">
        <ele>6</ele>
        <time>2018-03-27T21:08:01Z</time>
      </trkpt>
      <trkpt lat="48.465" lon="-4.75323">
        <ele>6</ele>
        <time>2018-03-27T21:09:01Z</time>
      </trkpt>
      <trkpt lat="48.4649" lon="-4.75317">
        <ele>7</ele>
        <time>2018-03-27T21:10:01Z</time>
      </trkpt>
      <trkpt lat="48.4647" lon="-4.75314">
        <ele>8</ele>
        <time>2018-03-27T21:11:01Z</time>
      </trkpt>
      <trkpt lat="48.46455" lon="-4.75326">
        <ele>8</ele>
        <time>2018-03-27T21:12:01Z</time>
      </trkpt>
      <trkpt lat="48.46454" lon="-4.75338">
        <ele>8</ele>
        <time>2018-03-27T21:13:01Z</time>
      </trkpt>
      <trkpt lat="48.46463" lon="-4.7536">
        <ele>8</ele>
        <time>2018-03-27T21:14:01Z</time>
      </trkpt>
      <trkpt lat="48.46478" lon="-4.75378">
        <ele>8</ele>
        <time>2018-03-27T21:15:01Z</time>
      </trkpt>
      <trkpt lat="48.46488" lon="-4.75387">
        <ele>8</ele>
        <time>2018-03-27T21:16:01Z</time>
      </trkpt>
      <trkpt lat="48.46509" lon="-4.75391">
        <ele>7</ele>
        <time>2018-03-27T21:17:01Z</time>
      </trkpt>
      <trkpt lat="48.46512" lon="-4.75399">
        <ele>7</ele>
        <time>2018-03-27T21:18:01Z</time>
      </trkpt>
      <trkpt lat="48.46517" lon="-4.75403">
        <ele>7</ele>
        <time>2018-03-27T21:19:01Z</time>
      </trkpt>
      <trkpt lat="48.46517" lon="-4.7541">
        <ele>7</ele>
        <time>2018-03-27T21:20:01Z</time>
      </trkpt>
      <trkpt lat="48.46524" lon="-4.75419">
        <ele>6</ele>
        <time>2018-03-27T21:21:01Z</time>
      </trkpt>
      <trkpt lat="48.46536" lon="-4.7543">
        <ele>6</ele>
        <time>2018-03-27T21:22:01Z</time>
      </trkpt>
      <trkpt lat="48.46541" lon="-4.75438">
        <ele>5</ele>
        <time>2018-03-27T21:23:01Z</time>
      </trkpt>
      <trkpt lat="48.46544" lon="-4.75473">
        <ele>5</ele>
        <time>2018-03-27T21:24:01Z</time>
      </trkpt>
      <trkpt lat="48.46549" lon="-4.75512">
        <ele>4</ele>
        <time>2018-03-27T21:25:01Z</time>
      </trkpt>
      <trkpt lat="48.46549" lon="-4.75533">
        <ele>4</ele>
        <time>2018-03-27T21:26:01Z</time>
      </trkpt>
      <trkpt lat="48.4654" lon="-4.75546">
        <ele>5</ele>
        <time>2018-03-27T21:27:01Z</time>
      </trkpt>
      <trkpt lat="48.46523" lon="-4.75558">
        <ele>5</ele>
        <time>2018-03-27T21:28:01Z</time>
      </trkpt>
      <trkpt lat="48.46503" lon="-4.75567">
        <ele>6</ele>
        <time>2018-03-27T21:29:01Z</time>
      </trkpt>
      <trkpt lat="48.4648" lon="-4.75573">
        <ele>7</ele>
        <time>2018-03-27T21:30:01Z</time>
      </trkpt>
      <trkpt lat="48.4647" lon="-4.7558">
        <ele>7</ele>
        <time>2018-03-27T21:31:01Z</time>
      </trkpt>
      <trkpt lat="48.46427" lon="-4.756">
        <ele>9</ele>
        <time>2018-03-27T21:32:01Z</time>
      </trkpt>
      <trkpt lat="48.46418" lon="-4.75616">
        <ele>9</ele>
        <time>2018-03-27T21:33:01Z</time>
      </trkpt>
      <trkpt lat="48.46405" lon="-4.75628">
        <ele>9</ele>
        <time>2018-03-27T21:34:01Z</time>
      </trkpt>
      <trkpt lat="48.46387" lon="-4.75634">
        <ele>10</ele>
        <time>2018-03-27T21:35:01Z</time>
      </trkpt>
      <trkpt lat="48.46378" lon="-4.75641">
        <ele>10</ele>
        <time>2018-03-27T21:36:01Z</time>
      </trkpt>
      <trkpt lat="48.46373" lon="-4.7565">
        <ele>10</ele>
        <time>2018-03-27T21:37:01Z</time>
      </trkpt>
      <trkpt lat="48.4637" lon="-4.75661">
        <ele>10</ele>
        <time>2018-03-27T21:38:01Z</time>
      </trkpt>
      <trkpt lat="48.46344" lon="-4.75688">
        <ele>11</ele>
        <time>2018-03-27T21:39:01Z</time>
      </trkpt>
      <trkpt lat="48.46335" lon="-4.75705">
        <ele>11</ele>
        <time>2018-03-27T21:40:01Z</time>
      </trkpt>
      <trkpt lat="48.46314" lon="-4.75727">
        <ele>10</ele>
        <time>2018-03-27T21:41:01Z</time>
      </trkpt>
      <trkpt lat="48.46308" lon="-4.75736">
        <ele>10</ele>
        <time>2018-03-27T21:42:01Z</time>
      </trkpt>
      <trkpt lat="48.46306" lon="-4.75777">
        <ele>8</ele>
        <time>2018-03-27T21:43:01Z</time>
      </trkpt>
      <trkpt lat="48.46303" lon="-4.75786">
        <ele>8</ele>
        <time>2018-03-27T21:44:01Z</time>
      </trkpt>
      <trkpt lat="48.46292" lon="-4.75788">
        <ele>8</ele>
        <time>2018-03-27T21:45:01Z</time>
      </trkpt>
      <trkpt lat="48.46275" lon="-4.7578">
        <ele>8</ele>
        <time>2018-03-27T21:46:01Z</time>
      </trkpt>
      <trkpt lat="48.46238" lon="-4.75786">
        <ele>8</ele>
        <time>2018-03-27T21:47:01Z</time>
      </trkpt>
      <trkpt lat="48.46222" lon="-4.75795">
        <ele>8</ele>
        <time>2018-03-27T21:48:01Z</time>
      </trkpt>
      <trkpt lat="48.46216" lon="-4.75801">
        <ele>7</ele>
        <time>2018-03-27T21:49:01Z</time>
      </trkpt>
      <trkpt lat="48.46186" lon="-4.7582">
        <ele>7</ele>
        <time>2018-03-27T21:50:01Z</time>
      </trkpt>
      <trkpt lat="48.46176" lon="-4.75829">
        <ele>6</ele>
        <time>2018-03-27T21:51:01Z</time>
      </trkpt>
      <trkpt lat="48.46158" lon="-4.75836">
        <ele>6</ele>
        <time>2018-03-27T21:52:01Z</time>
      </trkpt>
      <trkpt lat="48.46144" lon="-4.75836">
        <ele>6</ele>
        <time>2018-03-27T21:53:01Z</time>
      </trkpt>
      <trkpt lat="48.46128" lon="-4.75831">
        <ele>7</ele>
        <time>2018-03-27T21:54:01Z</time>
      </trkpt>
      <trkpt lat="48.46117" lon="-4.75822">
        <ele>7</ele>
        <time>2018-03-27T21:55:01Z</time>
      </trkpt>
      <trkpt lat="48.46098" lon="-4.75793">
        <ele>9</ele>
        <time>2018-03-27T21:56:01Z</time>
      </trkpt>
      <trkpt lat="48.46083" lon="-4.75795">
        <ele>9</ele>
        <time>2018-03-27T21:57:01Z</time>
      </trkpt>
      <trkpt lat="48.46062" lon="-4.75801">
        <ele>12</ele>
        <time>2018-03-27T21:58:01Z</time>
      </trkpt>
      <trkpt lat="48.46062" lon="-4.75801">
        <ele>12</ele>
        <time>2018-03-27T21:59:01Z</time>
      </trkpt>
      <trkpt lat="48.46053" lon="-4.75803">
        <ele>13</ele>
        <time>2018-03-27T22:00:01Z</time>
      </trkpt>
      <trkpt lat="48.46038" lon="-4.75824">
        <ele>14</ele>
        <time>2018-03-27T22:01:01Z</time>
      </trkpt>
      <trkpt lat="48.46038" lon="-4.75849">
        <ele>12</ele>
        <time>2018-03-27T22:02:01Z</time>
      </trkpt>
      <trkpt lat="48.46041" lon="-4.75866">
        <ele>11</ele>
        <time>2018-03-27T22:03:01Z</time>
      </trkpt>
      <trkpt lat="48.46042" lon="-4.75902">
        <ele>8</ele>
        <time>2018-03-27T22:04:01Z</time>
      </trkpt>
      <trkpt lat="48.46035" lon="-4.7592">
        <ele>8</ele>
        <time>2018-03-27T22:05:01Z</time>
      </trkpt>
      <trkpt lat="48.4598" lon="-4.75953">
        <ele>11</ele>
        <time>2018-03-27T22:06:01Z</time>
      </trkpt>
      <trkpt lat="48.4598" lon="-4.75953">
        <ele>11</ele>
        <time>2018-03-27T22:07:01Z</time>
      </trkpt>
      <trkpt lat="48.45969" lon="-4.75956">
        <ele>11</ele>
        <time>2018-03-27T22:08:01Z</time>
      </trkpt>
      <trkpt lat="48.45969" lon="-4.7597">
        <ele>11</ele>
        <time>2018-03-27T22:09:01Z</time>
      </trkpt>
      <trkpt lat="48.45979" lon="-4.76011">
        <ele>12</ele>
        <time>2018-03-27T22:10:01Z</time>
      </trkpt>
      <trkpt lat="48.45988" lon="-4.76018">
        <ele>12</ele>
        <time>2018-03-27T22:11:01Z</time>
      </trkpt>
      <trkpt lat="48.45988" lon="-4.76018">
        <ele>12</ele>
        <time>2018-03-27T22:12:01Z</time>
      </trkpt>
      <trkpt lat="48.46018" lon="-4.76023">
        <ele>13</ele>
        <time>2018-03-27T22:13:01Z</time>
      </trkpt>
      <trkpt lat="48.46018" lon="-4.76023">
        <ele>13</ele>
        <time>2018-03-27T22:14:01Z</time>
      </trkpt>
      <trkpt lat="48.46047" lon="-4.76025">
        <ele>14</ele>
        <time>2018-03-27T22:15:01Z</time>
      </trkpt>
      <trkpt lat="48.46073" lon="-4.76033">
        <ele>16</ele>
        <time>2018-03-27T22:16:01Z</time>
      </trkpt>
      <trkpt lat="48.46142" lon="-4.76038">
        <ele>18</ele>
        <time>2018-03-27T22:17:01Z</time>
      </trkpt>
      <trkpt lat="48.46142" lon="-4.76038">
        <ele>18</ele>
        <time>2018-03-27T22:18:01Z</time>
      </trkpt>
      <trkpt lat="48.46163" lon="-4.7605">
        <ele>20</ele>
        <time>2018-03-27T22:19:01Z</time>
      </trkpt>
      <trkpt lat="48.46175" lon="-4.76064">
        <ele>22</ele>
        <time>2018-03-27T22:20:01Z</time>
      </trkpt>
      <trkpt lat="48.46178" lon="-4.76074">
        <ele>23</ele>
        <time>2018-03-27T22:21:01Z</time>
      </trkpt>
      <trkpt lat="48.46165" lon="-4.76177">
        <ele>28</ele>
        <time>2018-03-27T22:22:01Z</time>
      </trkpt>
      <trkpt lat="48.46181" lon="-4.76169">
        <ele>28</ele>
        <time>2018-03-27T22:23:01Z</time>
      </trkpt>
      <trkpt lat="48.46181" lon="-4.76169">
        <ele>28</ele>
        <time>2018-03-27T22:24:01Z</time>
      </trkpt>
      <trkpt lat="48.46194" lon="-4.76164">
        <ele>27</ele>
        <time>2018-03-27T22:25:01Z</time>
      </trkpt>
      <trkpt lat="48.4622" lon="-4.76161">
        <ele>26</ele>
        <time>2018-03-27T22:26:01Z</time>
      </trkpt>
      <trkpt lat="48.46249" lon="-4.76151">
        <ele>25</ele>
        <time>2018-03-27T22:27:01Z</time>
      </trkpt>
      <trkpt lat="48.46266" lon="-4.76149">
        <ele>25</ele>
        <time>2018-03-27T22:28:01Z</time>
      </trkpt>
      <trkpt lat="48.46275" lon="-4.76151">
        <ele>25</ele>
        <time>2018-03-27T22:29:01Z</time>
      </trkpt>
      <trkpt lat="48.46275" lon="-4.76151">
        <ele>25</ele>
        <time>2018-03-27T22:30:01Z</time>
      </trkpt>
      <trkpt lat="48.46282" lon="-4.76154">
        <ele>25</ele>
        <time>2018-03-27T22:31:01Z</time>
      </trkpt>
      <trkpt lat="48.46293" lon="-4.76061">
        <ele>21</ele>
        <time>2018-03-27T22:32:01Z</time>
      </trkpt>
      <trkpt lat="48.46301" lon="-4.7603">
        <ele>19</ele>
        <time>2018-03-27T22:33:01Z</time>
      </trkpt>
      <trkpt lat="48.46307" lon="-4.76015">
        <ele>19</ele>
        <time>2018-03-27T22:34:01Z</time>
      </trkpt>
      <trkpt lat="48.46317" lon="-4.75999">
        <ele>18</ele>
        <time>2018-03-27T22:35:01Z</time>
      </trkpt>
      <trkpt lat="48.46331" lon="-4.75984">
        <ele>17</ele>
        <time>2018-03-27T22:36:01Z</time>
      </trkpt>
      <trkpt lat="48.46349" lon="-4.75971">
        <ele>16</ele>
        <time>2018-03-27T22:37:01Z</time>
      </trkpt>
      <trkpt lat="48.46388" lon="-4.75959">
        <ele>16</ele>
        <time>2018-03-27T22:38:01Z</time>
      </trkpt>
      <trkpt lat="48.46421" lon="-4.75931">
        <ele>15</ele>
        <time>2018-03-27T22:39:01Z</time>
      </trkpt>
      <trkpt lat="48.46459" lon="-4.75892">
        <ele>14</ele>
        <time>2018-03-27T22:40:01Z</time>
      </trkpt>
      <trkpt lat="48.46492" lon="-4.75828">
        <ele>12</ele>
        <time>2018-03-27T22:41:01Z</time>
      </trkpt>
      <trkpt lat="48.46499" lon="-4.75821">
        <ele>12</ele>
        <time>2018-03-27T22:42:01Z</time>
      </trkpt>
      <trkpt lat="48.46513" lon="-4.75817">
        <ele>12</ele>
        <time>2018-03-27T22:43:01Z</time>
      </trkpt>
      <trkpt lat="48.46543" lon="-4.75823">
        <ele>13</ele>
        <time>2018-03-27T22:44:01Z</time>
      </trkpt>
      <trkpt lat="48.4655" lon="-4.7582">
        <ele>13</ele>
        <time>2018-03-27T22:45:01Z</time>
      </trkpt>
      <trkpt lat="48.46565" lon="-4.75807">
        <ele>12</ele>
        <time>2018-03-27T22:46:01Z</time>
      </trkpt>
      <trkpt lat="48.46582" lon="-4.75801">
        <ele>12</ele>
        <time>2018-03-27T22:47:01Z</time>
      </trkpt>
      <trkpt lat="48.46582" lon="-4.75801">
        <ele>12</ele>
        <time>2018-03-27T22:48:01Z</time>
      </trkpt>
      <trkpt lat="48.46594" lon="-4.75798">
        <ele>12</ele>
        <time>2018-03-27T22:49:01Z</time>
      </trkpt>
      <trkpt lat="48.466" lon="-4.75905">
        <ele>17</ele>
        <time>2018-03-27T22:50:01Z</time>
      </trkpt>
      <trkpt lat="48.466" lon="-4.75905">
        <ele>17</ele>
        <time>2018-03-27T22:51:01Z</time>
      </trkpt>
      <trkpt lat="48.466" lon="-4.75894">
        <ele>17</ele>
        <time>2018-03-27T22:52:01Z</time>
      </trkpt>
      <trkpt lat="48.46617" lon="-4.75871">
        <ele>16</ele>
        <time>2018-03-27T22:53:01Z</time>
      </trkpt>
      <trkpt lat="48.46626" lon="-4.75863">
        <ele>16</ele>
        <time>2018-03-27T22:54:01Z</time>
      </trkpt>
      <trkpt lat="48.4666" lon="-4.75845">
        <ele>15</ele>
        <time>2018-03-27T22:55:01Z</time>
      </trkpt>
      <trkpt lat="48.46709" lon="-4.75824">
        <ele>15</ele>
        <time>2018-03-27T22:56:01Z</time>
      </trkpt>
      <trkpt lat="48.46727" lon="-4.75813">
        <ele>14</ele>
        <time>2018-03-27T22:57:01Z</time>
      </trkpt>
      <trkpt lat="48.46742" lon="-4.75798">
        <ele>13</ele>
        <time>2018-03-27T22:58:01Z</time>
      </trkpt>
      <trkpt lat="48.4679" lon="-4.7577">
        <ele>6</ele>
        <time>2018-03-27T22:59:01Z</time>
      </trkpt>
      <trkpt lat="48.46792" lon="-4.75776">
        <ele>7</ele>
        <time>2018-03-27T23:00:01Z</time>
      </trkpt>
      <trkpt lat="48.46792" lon="-4.75776">
        <ele>7</ele>
        <time>2018-03-27T23:01:01Z</time>
      </trkpt>
      <trkpt lat="48.46799" lon="-4.7579">
        <ele>7</ele>
        <time>2018-03-27T23:02:01Z</time>
      </trkpt>
      <trkpt lat="48.46805" lon="-4.75793">
        <ele>6</ele>
        <time>2018-03-27T23:03:01Z</time>
      </trkpt>
      <trkpt lat="48.46811" lon="-4.7581">
        <ele>6</ele>
        <time>2018-03-27T23:04:01Z</time>
      </trkpt>
      <trkpt lat="48.46813" lon="-4.75824">
        <ele>6</ele>
        <time>2018-03-27T23:05:01Z</time>
      </trkpt>
      <trkpt lat="48.46819" lon="-4.75848">
        <ele>7</ele>
        <time>2018-03-27T23:06:01Z</time>
      </trkpt>
      <trkpt lat="48.46819" lon="-4.75878">
        <ele>8</ele>
        <time>2018-03-27T23:07:01Z</time>
      </trkpt>
      <trkpt lat="48.46824" lon="-4.75916">
        <ele>8</ele>
        <time>2018-03-27T23:08:01Z</time>
      </trkpt>
      <trkpt lat="48.46823" lon="-4.75949">
        <ele>8</ele>
        <time>2018-03-27T23:09:01Z</time>
      </trkpt>
      <trkpt lat="48.46824" lon="-4.75996">
        <ele>8</ele>
        <time>2018-03-27T23:10:01Z</time>
      </trkpt>
      <trkpt lat="48.46826" lon="-4.76022">
        <ele>8</ele>
        <time>2018-03-27T23:11:01Z</time>
      </trkpt>
      <trkpt lat="48.46835" lon="-4.76044">
        <ele>6</ele>
        <time>2018-03-27T23:12:01Z</time>
      </trkpt>
      <trkpt lat="48.46844" lon="-4.76052">
        <ele>6</ele>
        <time>2018-03-27T23:13:01Z</time>
      </trkpt>
      <trkpt lat="48.46849" lon="-4.76054">
        <ele>6</ele>
        <time>2018-03-27T23:14:01Z</time>
      </trkpt>
      <trkpt lat="48.46857" lon="-4.76061">
        <ele>5</ele>
        <time>2018-03-27T23:15:01Z</time>
      </trkpt>
      <trkpt lat="48.46864" lon="-4.76079">
        <ele>5</ele>
        <time>2018-03-27T23:16:01Z</time>
      </trkpt>
      <trkpt lat="48.46871" lon="-4.76083">
        <ele>5</ele>
        <time>2018-03-27T23:17:01Z</time>
      </trkpt>
      <trkpt lat="48.46891" lon="-4.7608">
        <ele>4</ele>
        <time>2018-03-27T23:18:01Z</time>
      </trkpt>
      <trkpt lat="48.46903" lon="-4.7609">
        <ele>3</ele>
        <time>2018-03-27T23:19:01Z</time>
      </trkpt>
      <trkpt lat="48.4692" lon="-4.76094">
        <ele>3</ele>
        <time>2018-03-27T23:20:01Z</time>
      </trkpt>
      <trkpt lat="48.46925" lon="-4.76118">
        <ele>3</ele>
        <time>2018-03-27T23:21:01Z</time>
      </trkpt>
      <trkpt lat="48.46928" lon="-4.7614">
        <ele>3</ele>
        <time>2018-03-27T23:22:01Z</time>
      </trkpt>
      <trkpt lat="48.46927" lon="-4.76145">
        <ele>3</ele>
        <time>2018-03-27T23:23:01Z</time>
      </trkpt>
      <trkpt lat="48.46927" lon="-4.76145">
        <ele>3</ele>
        <time>2018-03-27T23:24:01Z</time>
      </trkpt>
      <trkpt lat="48.46927" lon="-4.76148">
        <ele>3</ele>
        <time>2018-03-27T23:25:01Z</time>
      </trkpt>
      <trkpt lat="48.46922" lon="-4.7615">
        <ele>3</ele>
        <time>2018-03-27T23:26:01Z</time>
      </trkpt>
      <trkpt lat="48.46894" lon="-4.7614">
        <ele>3</ele>
        <time>2018-03-27T23:27:01Z</time>
      </trkpt>
      <trkpt lat="48.46831" lon="-4.76113">
        <ele>5</ele>
        <time>2018-03-27T23:28:01Z</time>
      </trkpt>
      <trkpt lat="48.46816" lon="-4.7611">
        <ele>7</ele>
        <time>2018-03-27T23:29:01Z</time>
      </trkpt>
      <trkpt lat="48.46788" lon="-4.76125">
        <ele>8</ele>
        <time>2018-03-27T23:30:01Z</time>
      </trkpt>
      <trkpt lat="48.46741" lon="-4.76156">
        <ele>9</ele>
        <time>2018-03-27T23:31:01Z</time>
      </trkpt>
      <trkpt lat="48.46733" lon="-4.76165">
        <ele>9</ele>
        <time>2018-03-27T23:32:01Z</time>
      </trkpt>
      <trkpt lat="48.46728" lon="-4.76167">
        <ele>10</ele>
        <time>2018-03-27T23:33:01Z</time>
      </trkpt>
      <trkpt lat="48.46719" lon="-4.76184">
        <ele>9</ele>
        <time>2018-03-27T23:34:01Z</time>
      </trkpt>
      <trkpt lat="48.46705" lon="-4.76197">
        <ele>10</ele>
        <time>2018-03-27T23:35:01Z</time>
      </trkpt>
      <trkpt lat="48.46703" lon="-4.76201">
        <ele>10</ele>
        <time>2018-03-27T23:36:01Z</time>
      </trkpt>
      <trkpt lat="48.46692" lon="-4.76192">
        <ele>11</ele>
        <time>2018-03-27T23:37:01Z</time>
      </trkpt>
      <trkpt lat="48.46692" lon="-4.76192">
        <ele>11</ele>
        <time>2018-03-27T23:38:01Z</time>
      </trkpt>
      <trkpt lat="48.46686" lon="-4.76186">
        <ele>12</ele>
        <time>2018-03-27T23:39:01Z</time>
      </trkpt>
      <trkpt lat="48.46682" lon="-4.76187">
        <ele>12</ele>
        <time>2018-03-27T23:40:01Z</time>
      </trkpt>
      <trkpt lat="48.46669" lon="-4.7625">
        <ele>11</ele>
        <time>2018-03-27T23:41:01Z</time>
      </trkpt>
      <trkpt lat="48.46666" lon="-4.76269">
        <ele>11</ele>
        <time>2018-03-27T23:42:01Z</time>
      </trkpt>
      <trkpt lat="48.46667" lon="-4.76283">
        <ele>11</ele>
        <time>2018-03-27T23:43:01Z</time>
      </trkpt>
      <trkpt lat="48.46673" lon="-4.763">
        <ele>10</ele>
        <time>2018-03-27T23:44:01Z</time>
      </trkpt>
      <trkpt lat="48.46686" lon="-4.76353">
        <ele>8</ele>
        <time>2018-03-27T23:45:01Z</time>
      </trkpt>
      <trkpt lat="48.46687" lon="-4.76363">
        <ele>8</ele>
        <time>2018-03-27T23:46:01Z</time>
      </trkpt>
      <trkpt lat="48.46686" lon="-4.76372">
        <ele>8</ele>
        <time>2018-03-27T23:47:01Z</time>
      </trkpt>
      <trkpt lat="48.46686" lon="-4.76372">
        <ele>8</ele>
        <time>2018-03-27T23:48:01Z</time>
      </trkpt>
      <trkpt lat="48.46679" lon="-4.76383">
        <ele>8</ele>
        <time>2018-03-27T23:49:01Z</time>
      </trkpt>
      <trkpt lat="48.4666" lon="-4.76427">
        <ele>7</ele>
        <time>2018-03-27T23:50:01Z</time>
      </trkpt>
      <trkpt lat="48.46638" lon="-4.76429">
        <ele>8</ele>
        <time>2018-03-27T23:51:01Z</time>
      </trkpt>
      <trkpt lat="48.46628" lon="-4.76438">
        <ele>7</ele>
        <time>2018-03-27T23:52:01Z</time>
      </trkpt>
      <trkpt lat="48.4661" lon="-4.76445">
        <ele>8</ele>
        <time>2018-03-27T23:53:01Z</time>
      </trkpt>
      <trkpt lat="48.46607" lon="-4.76443">
        <ele>8</ele>
        <time>2018-03-27T23:54:01Z</time>
      </trkpt>
      <trkpt lat="48.466" lon="-4.76446">
        <ele>8</ele>
        <time>2018-03-27T23:55:01Z</time>
      </trkpt>
      <trkpt lat="48.46592" lon="-4.7646">
        <ele>7</ele>
        <time>2018-03-27T23:56:01Z</time>
      </trkpt>
      <trkpt lat="48.46564" lon="-4.76473">
        <ele>8</ele>
        <time>2018-03-27T23:57:01Z</time>
      </trkpt>
      <trkpt lat="48.46526" lon="-4.76524">
        <ele>6</ele>
        <time>2018-03-27T23:58:01Z</time>
      </trkpt>
      <trkpt lat="48.46512" lon="-4.76539">
        <ele>6</ele>
        <time>2018-03-27T23:59:01Z</time>
      </trkpt>
      <trkpt lat="48.46496" lon="-4.7657">
        <ele>4</ele>
        <time>2018-03-28T00:00:01Z</time>
      </trkpt>
      <trkpt lat="48.46494" lon="-4.76591">
        <ele>3</ele>
        <time>2018-03-28T00:01:01Z</time>
      </trkpt>
      <trkpt lat="48.46477" lon="-4.76606">
        <ele>4</ele>
        <time>2018-03-28T00:02:01Z</time>
      </trkpt>
      <trkpt lat="48.46455" lon="-4.76615">
        <ele>6</ele>
        <time>2018-03-28T00:03:01Z</time>
      </trkpt>
      <trkpt lat="48.46438" lon="-4.76627">
        <ele>6</ele>
        <time>2018-03-28T00:04:01Z</time>
      </trkpt>
      <trkpt lat="48.46427" lon="-4.76632">
        <ele>6</ele>
        <time>2018-03-28T00:05:01Z</time>
      </trkpt>
      <trkpt lat="48.46427" lon="-4.76632">
        <ele>6</ele>
        <time>2018-03-28T00:06:01Z</time>
      </trkpt>
      <trkpt lat="48.46416" lon="-4.76645">
        <ele>6</ele>
        <time>2018-03-28T00:07:01Z</time>
      </trkpt>
      <trkpt lat="48.46414" lon="-4.76653">
        <ele>5</ele>
        <time>2018-03-28T00:08:01Z</time>
      </trkpt>
      <trkpt lat="48.46408" lon="-4.76655">
        <ele>5</ele>
        <time>2018-03-28T00:09:01Z</time>
      </trkpt>
      <trkpt lat="48.46402" lon="-4.76651">
        <ele>5</ele>
        <time>2018-03-28T00:10:01Z</time>
      </trkpt>
      <trkpt lat="48.46397" lon="-4.76643">
        <ele>6</ele>
        <time>2018-03-28T00:11:01Z</time>
      </trkpt>
      <trkpt lat="48.46385" lon="-4.76637">
        <ele>7</ele>
        <time>2018-03-28T00:12:01Z</time>
      </trkpt>
      <trkpt lat="48.46374" lon="-4.76635">
        <ele>7</ele>
        <time>2018-03-28T00:13:01Z</time>
      </trkpt>
      <trkpt lat="48.46364" lon="-4.76638">
        <ele>7</ele>
        <time>2018-03-28T00:14:01Z</time>
      </trkpt>
      <trkpt lat="48.46349" lon="-4.76636">
        <ele>7</ele>
        <time>2018-03-28T00:15:01Z</time>
      </trkpt>
      <trkpt lat="48.46329" lon="-4.76644">
        <ele>6</ele>
        <time>2018-03-28T00:16:01Z</time>
      </trkpt>
      <trkpt lat="48.46316" lon="-4.76644">
        <ele>7</ele>
        <time>2018-03-28T00:17:01Z</time>
      </trkpt>
      <trkpt lat="48.46294" lon="-4.7664">
        <ele>9</ele>
        <time>2018-03-28T00:18:01Z</time>
      </trkpt>
      <trkpt lat="48.46273" lon="-4.76652">
        <ele>9</ele>
        <time>2018-03-28T00:19:01Z</time>
      </trkpt>
      <trkpt lat="48.46248" lon="-4.76672">
        <ele>9</ele>
        <time>2018-03-28T00:20:01Z</time>
      </trkpt>
      <trkpt lat="48.46236" lon="-4.76685">
        <ele>8</ele>
        <time>2018-03-28T00:21:01Z</time>
      </trkpt>
      <trkpt lat="48.46225" lon="-4.76705">
        <ele>8</ele>
        <time>2018-03-28T00:22:01Z</time>
      </trkpt>
      <trkpt lat="48.4621" lon="-4.76741">
        <ele>8</ele>
        <time>2018-03-28T00:23:01Z</time>
      </trkpt>
      <trkpt lat="48.46204" lon="-4.7675">
        <ele>8</ele>
        <time>2018-03-28T00:24:01Z</time>
      </trkpt>
      <trkpt lat="48.46201" lon="-4.76762">
        <ele>8</ele>
        <time>2018-03-28T00:25:01Z</time>
      </trkpt>
      <trkpt lat="48.46195" lon="-4.76809">
        <ele>8</ele>
        <time>2018-03-28T00:26:01Z</time>
      </trkpt>
      <trkpt lat="48.46195" lon="-4.76849">
        <ele>7</ele>
        <time>2018-03-28T00:27:01Z</time>
      </trkpt>
      <trkpt lat="48.46201" lon="-4.76885">
        <ele>7</ele>
        <time>2018-03-28T00:28:01Z</time>
      </trkpt>
      <trkpt lat="48.4621" lon="-4.76916">
        <ele>6</ele>
        <time>2018-03-28T00:29:01Z</time>
      </trkpt>
      <trkpt lat="48.4621" lon="-4.76931">
        <ele>6</ele>
        <time>2018-03-28T00:30:01Z</time>
      </trkpt>
      <trkpt lat="48.46218" lon="-4.76968">
        <ele>6</ele>
        <time>2018-03-28T00:31:01Z</time>
      </trkpt>
      <trkpt lat="48.46216" lon="-4.76977">
        <ele>6</ele>
        <time>2018-03-28T00:32:01Z</time>
      </trkpt>
      <trkpt lat="48.4622" lon="-4.76985">
        <ele>6</ele>
        <time>2018-03-28T00:33:01Z</time>
      </trkpt>
      <trkpt lat="48.4622" lon="-4.76985">
        <ele>6</ele>
        <time>2018-03-28T00:34:01Z</time>
      </trkpt>
      <trkpt lat="48.46216" lon="-4.76977">
        <ele>6</ele>
        <time>2018-03-28T00:35:01Z</time>
      </trkpt>
      <trkpt lat="48.46218" lon="-4.76968">
        <ele>6</ele>
        <time>2018-03-28T00:36:01Z</time>
      </trkpt>
      <trkpt lat="48.4621" lon="-4.76931">
        <ele>6</ele>
        <time>2018-03-28T00:37:01Z</time>
      </trkpt>
      <trkpt lat="48.4621" lon="-4.76916">
        <ele>6</ele>
        <time>2018-03-28T00:38:01Z</time>
      </trkpt>
      <trkpt lat="48.46201" lon="-4.76885">
        <ele>7</ele>
        <time>2018-03-28T00:39:01Z</time>
      </trkpt>
      <trkpt lat="48.46195" lon="-4.76849">
        <ele>7</ele>
        <time>2018-03-28T00:40:01Z</time>
      </trkpt>
      <trkpt lat="48.46192" lon="-4.76867">
        <ele>7</ele>
        <time>2018-03-28T00:41:01Z</time>
      </trkpt>
      <trkpt lat="48.46183" lon="-4.76884">
        <ele>8</ele>
        <time>2018-03-28T00:42:01Z</time>
      </trkpt>
      <trkpt lat="48.46163" lon="-4.76918">
        <ele>9</ele>
        <time>2018-03-28T00:43:01Z</time>
      </trkpt>
      <trkpt lat="48.46152" lon="-4.7692">
        <ele>9</ele>
        <time>2018-03-28T00:44:01Z</time>
      </trkpt>
      <trkpt lat="48.4611" lon="-4.76964">
        <ele>8</ele>
        <time>2018-03-28T00:45:01Z</time>
      </trkpt>
      <trkpt lat="48.46111" lon="-4.77033">
        <ele>5</ele>
        <time>2018-03-28T00:46:01Z</time>
      </trkpt>
      <trkpt lat="48.46111" lon="-4.77033">
        <ele>5</ele>
        <time>2018-03-28T00:47:01Z</time>
      </trkpt>
      <trkpt lat="48.46103" lon="-4.77045">
        <ele>4</ele>
        <time>2018-03-28T00:48:01Z</time>
      </trkpt>
      <trkpt lat="48.46093" lon="-4.77053">
        <ele>4</ele>
        <time>2018-03-28T00:49:01Z</time>
      </trkpt>
      <trkpt lat="48.46071" lon="-4.77053">
        <ele>4</ele>
        <time>2018-03-28T00:50:01Z</time>
      </trkpt>
      <trkpt lat="48.46038" lon="-4.77039">
        <ele>4</ele>
        <time>2018-03-28T00:51:01Z</time>
      </trkpt>
      <trkpt lat="48.46015" lon="-4.77011">
        <ele>6</ele>
        <time>2018-03-28T00:52:01Z</time>
      </trkpt>
      <trkpt lat="48.45979" lon="-4.77011">
        <ele>6</ele>
        <time>2018-03-28T00:53:01Z</time>
      </trkpt>
      <trkpt lat="48.45946" lon="-4.77017">
        <ele>7</ele>
        <time>2018-03-28T00:54:01Z</time>
      </trkpt>
      <trkpt lat="48.45892" lon="-4.77045">
        <ele>6</ele>
        <time>2018-03-28T00:55:01Z</time>
      </trkpt>
      <trkpt lat="48.45892" lon="-4.77045">
        <ele>6</ele>
        <time>2018-03-28T00:56:01Z</time>
      </trkpt>
      <trkpt lat="48.45883" lon="-4.77047">
        <ele>6</ele>
        <time>2018-03-28T00:57:01Z</time>
      </trkpt>
      <trkpt lat="48.4585" lon="-4.77041">
        <ele>7</ele>
        <time>2018-03-28T00:58:01Z</time>
      </trkpt>
      <trkpt lat="48.45823" lon="-4.77033">
        <ele>8</ele>
        <time>2018-03-28T00:59:01Z</time>
      </trkpt>
      <trkpt lat="48.45812" lon="-4.77015">
        <ele>10</ele>
        <time>2018-03-28T01:00:01Z</time>
      </trkpt>
      <trkpt lat="48.45715" lon="-4.77027">
        <ele>11</ele>
        <time>2018-03-28T01:01:01Z</time>
      </trkpt>
      <trkpt lat="48.457" lon="-4.77039">
        <ele>11</ele>
        <time>2018-03-28T01:02:01Z</time>
      </trkpt>
      <trkpt lat="48.45684" lon="-4.77045">
        <ele>12</ele>
        <time>2018-03-28T01:03:01Z</time>
      </trkpt>
      <trkpt lat="48.4567" lon="-4.77055">
        <ele>12</ele>
        <time>2018-03-28T01:04:01Z</time>
      </trkpt>
      <trkpt lat="48.45659" lon="-4.77068">
        <ele>12</ele>
        <time>2018-03-28T01:05:01Z</time>
      </trkpt>
      <trkpt lat="48.45659" lon="-4.77068">
        <ele>12</ele>
        <time>2018-03-28T01:06:01Z</time>
      </trkpt>
      <trkpt lat="48.45646" lon="-4.77075">
        <ele>12</ele>
        <time>2018-03-28T01:07:01Z</time>
      </trkpt>
      <trkpt lat="48.4562" lon="-4.77097">
        <ele>13</ele>
        <time>2018-03-28T01:08:01Z</time>
      </trkpt>
      <trkpt lat="48.45608" lon="-4.77104">
        <ele>13</ele>
        <time>2018-03-28T01:09:01Z</time>
      </trkpt>
      <trkpt lat="48.45575" lon="-4.77118">
        <ele>14</ele>
        <time>2018-03-28T01:10:01Z</time>
      </trkpt>
      <trkpt lat="48.45568" lon="-4.77125">
        <ele>14</ele>
        <time>2018-03-28T01:11:01Z</time>
      </trkpt>
      <trkpt lat="48.45556" lon="-4.77128">
        <ele>15</ele>
        <time>2018-03-28T01:12:01Z</time>
      </trkpt>
      <trkpt lat="48.45534" lon="-4.77143">
        <ele>15</ele>
        <time>2018-03-28T01:13:01Z</time>
      </trkpt>
      <trkpt lat="48.45522" lon="-4.77146">
        <ele>16</ele>
        <time>2018-03-28T01:14:01Z</time>
      </trkpt>
      <trkpt lat="48.45514" lon="-4.77161">
        <ele>15</ele>
        <time>2018-03-28T01:15:01Z</time>
      </trkpt>
      <trkpt lat="48.45508" lon="-4.77182">
        <ele>14</ele>
        <time>2018-03-28T01:16:01Z</time>
      </trkpt>
      <trkpt lat="48.45498" lon="-4.77196">
        <ele>13</ele>
        <time>2018-03-28T01:17:01Z</time>
      </trkpt>
      <trkpt lat="48.45484" lon="-4.77225">
        <ele>12</ele>
        <time>2018-03-28T01:18:01Z</time>
      </trkpt>
      <trkpt lat="48.45471" lon="-4.77241">
        <ele>12</ele>
        <time>2018-03-28T01:19:01Z</time>
      </trkpt>
      <trkpt lat="48.45467" lon="-4.77258">
        <ele>11</ele>
        <time>2018-03-28T01:20:01Z</time>
      </trkpt>
      <trkpt lat="48.45454" lon="-4.77292">
        <ele>12</ele>
        <time>2018-03-28T01:21:01Z</time>
      </trkpt>
      <trkpt lat="48.45447" lon="-4.77307">
        <ele>12</ele>
        <time>2018-03-28T01:22:01Z</time>
      </trkpt>
      <trkpt lat="48.45447" lon="-4.77307">
        <ele>12</ele>
        <time>2018-03-28T01:23:01Z</time>
      </trkpt>
      <trkpt lat="48.45436" lon="-4.77331">
        <ele>13</ele>
        <time>2018-03-28T01:24:01Z</time>
      </trkpt>
      <trkpt lat="48.45421" lon="-4.7737">
        <ele>11</ele>
        <time>2018-03-28T01:25:01Z</time>
      </trkpt>
      <trkpt lat="48.4541" lon="-4.77385">
        <ele>11</ele>
        <time>2018-03-28T01:26:01Z</time>
      </trkpt>
      <trkpt lat="48.4539" lon="-4.77407">
        <ele>11</ele>
        <time>2018-03-28T01:27:01Z</time>
      </trkpt>
      <trkpt lat="48.45373" lon="-4.77436">
        <ele>10</ele>
        <time>2018-03-28T01:28:01Z</time>
      </trkpt>
      <trkpt lat="48.45374" lon="-4.77465">
        <ele>8</ele>
        <time>2018-03-28T01:29:01Z</time>
      </trkpt>
      <trkpt lat="48.45367" lon="-4.77489">
        <ele>6</ele>
        <time>2018-03-28T01:30:01Z</time>
      </trkpt>
      <trkpt lat="48.45357" lon="-4.77501">
        <ele>6</ele>
        <time>2018-03-28T01:31:01Z</time>
      </trkpt>
      <trkpt lat="48.45338" lon="-4.77519">
        <ele>6</ele>
        <time>2018-03-28T01:32:01Z</time>
      </trkpt>
      <trkpt lat="48.45329" lon="-4.77523">
        <ele>6</ele>
        <time>2018-03-28T01:33:01Z</time>
      </trkpt>
      <trkpt lat="48.45302" lon="-4.77523">
        <ele>7</ele>
        <time>2018-03-28T01:34:01Z</time>
      </trkpt>
      <trkpt lat="48.45278" lon="-4.77533">
        <ele>7</ele>
        <time>2018-03-28T01:35:01Z</time>
      </trkpt>
      <trkpt lat="48.45257" lon="-4.77534">
        <ele>8</ele>
        <time>2018-03-28T01:36:01Z</time>
      </trkpt>
      <trkpt lat="48.45234" lon="-4.77539">
        <ele>7</ele>
        <time>2018-03-28T01:37:01Z</time>
      </trkpt>
      <trkpt lat="48.4522" lon="-4.77539">
        <ele>7</ele>
        <time>2018-03-28T01:38:01Z</time>
      </trkpt>
      <trkpt lat="48.45182" lon="-4.77532">
        <ele>8</ele>
        <time>2018-03-28T01:39:01Z</time>
      </trkpt>
      <trkpt lat="48.45173" lon="-4.77534">
        <ele>7</ele>
        <time>2018-03-28T01:40:01Z</time>
      </trkpt>
      <trkpt lat="48.45159" lon="-4.77556">
        <ele>7</ele>
        <time>2018-03-28T01:41:01Z</time>
      </trkpt>
      <trkpt lat="48.45159" lon="-4.77556">
        <ele>7</ele>
        <time>2018-03-28T01:42:01Z</time>
      </trkpt>
      <trkpt lat="48.45154" lon="-4.77563">
        <ele>6</ele>
        <time>2018-03-28T01:43:01Z</time>
      </trkpt>
      <trkpt lat="48.45142" lon="-4.77587">
        <ele>6</ele>
        <time>2018-03-28T01:44:01Z</time>
      </trkpt>
      <trkpt lat="48.45141" lon="-4.77599">
        <ele>6</ele>
        <time>2018-03-28T01:45:01Z</time>
      </trkpt>
      <trkpt lat="48.45141" lon="-4.77608">
        <ele>6</ele>
        <time>2018-03-28T01:46:01Z</time>
      </trkpt>
      <trkpt lat="48.45148" lon="-4.77632">
        <ele>6</ele>
        <time>2018-03-28T01:47:01Z</time>
      </trkpt>
      <trkpt lat="48.45157" lon="-4.77674">
        <ele>6</ele>
        <time>2018-03-28T01:48:01Z</time>
      </trkpt>
      <trkpt lat="48.45166" lon="-4.77739">
        <ele>7</ele>
        <time>2018-03-28T01:49:01Z</time>
      </trkpt>
      <trkpt lat="48.45164" lon="-4.77761">
        <ele>7</ele>
        <time>2018-03-28T01:50:01Z</time>
      </trkpt>
      <trkpt lat="48.45161" lon="-4.77778">
        <ele>6</ele>
        <time>2018-03-28T01:51:01Z</time>
      </trkpt>
      <trkpt lat="48.45156" lon="-4.7779">
        <ele>6</ele>
        <time>2018-03-28T01:52:01Z</time>
      </trkpt>
      <trkpt lat="48.45156" lon="-4.7779">
        <ele>6</ele>
        <time>2018-03-28T01:53:01Z</time>
      </trkpt>
      <trkpt lat="48.45122" lon="-4.77841">
        <ele>6</ele>
        <time>2018-03-28T01:54:01Z</time>
      </trkpt>
      <trkpt lat="48.45112" lon="-4.77879">
        <ele>6</ele>
        <time>2018-03-28T01:55:01Z</time>
      </trkpt>
      <trkpt lat="48.45098" lon="-4.77902">
        <ele>6</ele>
        <time>2018-03-28T01:56:01Z</time>
      </trkpt>
      <trkpt lat="48.4509" lon="-4.77919">
        <ele>6</ele>
        <time>2018-03-28T01:57:01Z</time>
      </trkpt>
      <trkpt lat="48.45081" lon="-4.77931">
        <ele>5</ele>
        <time>2018-03-28T01:58:01Z</time>
      </trkpt>
      <trkpt lat="48.45081" lon="-4.77931">
        <ele>5</ele>
        <time>2018-03-28T01:59:01Z</time>
      </trkpt>
      <trkpt lat="48.45074" lon="-4.77935">
        <ele>5</ele>
        <time>2018-03-28T02:00:01Z</time>
      </trkpt>
      <trkpt lat="48.45062" lon="-4.77937">
        <ele>4</ele>
        <time>2018-03-28T02:01:01Z</time>
      </trkpt>
      <trkpt lat="48.45047" lon="-4.77932">
        <ele>4</ele>
        <time>2018-03-28T02:02:01Z</time>
      </trkpt>
      <trkpt lat="48.45038" lon="-4.77927">
        <ele>4</ele>
        <time>2018-03-28T02:03:01Z</time>
      </trkpt>
      <trkpt lat="48.45006" lon="-4.779">
        <ele>5</ele>
        <time>2018-03-28T02:04:01Z</time>
      </trkpt>
      <trkpt lat="48.44993" lon="-4.77891">
        <ele>5</ele>
        <time>2018-03-28T02:05:01Z</time>
      </trkpt>
      <trkpt lat="48.44982" lon="-4.77886">
        <ele>5</ele>
        <time>2018-03-28T02:06:01Z</time>
      </trkpt>
      <trkpt lat="48.44972" lon="-4.77879">
        <ele>5</ele>
        <time>2018-03-28T02:07:01Z</time>
      </trkpt>
      <trkpt lat="48.44958" lon="-4.77858">
        <ele>6</ele>
        <time>2018-03-28T02:08:01Z</time>
      </trkpt>
      <trkpt lat="48.44947" lon="-4.77845">
        <ele>7</ele>
        <time>2018-03-28T02:09:01Z</time>
      </trkpt>
      <trkpt lat="48.44936" lon="-4.77835">
        <ele>7</ele>
        <time>2018-03-28T02:10:01Z</time>
      </trkpt>
      <trkpt lat="48.44908" lon="-4.77818">
        <ele>9</ele>
        <time>2018-03-28T02:11:01Z</time>
      </trkpt>
      <trkpt lat="48.44885" lon="-4.77815">
        <ele>9</ele>
        <time>2018-03-28T02:12:01Z</time>
      </trkpt>
      <trkpt lat="48.44875" lon="-4.77817">
        <ele>8</ele>
        <time>2018-03-28T02:13:01Z</time>
      </trkpt>
      <trkpt lat="48.44861" lon="-4.77826">
        <ele>8</ele>
        <time>2018-03-28T02:14:01Z</time>
      </trkpt>
      <trkpt lat="48.44834" lon="-4.7783">
        <ele>7</ele>
        <time>2018-03-28T02:15:01Z</time>
      </trkpt>
      <trkpt lat="48.44797" lon="-4.77818">
        <ele>8</ele>
        <time>2018-03-28T02:16:01Z</time>
      </trkpt>
      <trkpt lat="48.44791" lon="-4.77812">
        <ele>8</ele>
        <time>2018-03-28T02:17:01Z</time>
      </trkpt>
      <trkpt lat="48.44787" lon="-4.77793">
        <ele>8</ele>
        <time>2018-03-28T02:18:01Z</time>
      </trkpt>
      <trkpt lat="48.44768" lon="-4.77777">
        <ele>8</ele>
        <time>2018-03-28T02:19:01Z</time>
      </trkpt>
      <trkpt lat="48.44768" lon="-4.77777">
        <ele>8</ele>
        <time>2018-03-28T02:20:01Z</time>
      </trkpt>
      <trkpt lat="48.44765" lon="-4.77775">
        <ele>8</ele>
        <time>2018-03-28T02:21:01Z</time>
      </trkpt>
      <trkpt lat="48.44757" lon="-4.77792">
        <ele>8</ele>
        <time>2018-03-28T02:22:01Z</time>
      </trkpt>
      <trkpt lat="48.44742" lon="-4.77817">
        <ele>7</ele>
        <time>2018-03-28T02:23:01Z</time>
      </trkpt>
      <trkpt lat="48.44708" lon="-4.77837">
        <ele>6</ele>
        <time>2018-03-28T02:24:01Z</time>
      </trkpt>
      <trkpt lat="48.44674" lon="-4.7784">
        <ele>6</ele>
        <time>2018-03-28T02:25:01Z</time>
      </trkpt>
      <trkpt lat="48.44668" lon="-4.77836">
        <ele>6</ele>
        <time>2018-03-28T02:26:01Z</time>
      </trkpt>
      <trkpt lat="48.44645" lon="-4.77803">
        <ele>6</ele>
        <time>2018-03-28T02:27:01Z</time>
      </trkpt>
      <trkpt lat="48.44625" lon="-4.77764">
        <ele>6</ele>
        <time>2018-03-28T02:28:01Z</time>
      </trkpt>
      <trkpt lat="48.44603" lon="-4.77731">
        <ele>7</ele>
        <time>2018-03-28T02:29:01Z</time>
      </trkpt>
      <trkpt lat="48.44603" lon="-4.77731">
        <ele>7</ele>
        <time>2018-03-28T02:30:01Z</time>
      </trkpt>
      <trkpt lat="48.44599" lon="-4.77725">
        <ele>7</ele>
        <time>2018-03-28T02:31:01Z</time>
      </trkpt>
      <trkpt lat="48.44597" lon="-4.77707">
        <ele>7</ele>
        <time>2018-03-28T02:32:01Z</time>
      </trkpt>
      <trkpt lat="48.44597" lon="-4.77694">
        <ele>7</ele>
        <time>2018-03-28T02:33:01Z</time>
      </trkpt>
      <trkpt lat="48.4458" lon="-4.77685">
        <ele>7</ele>
        <time>2018-03-28T02:34:01Z</time>
      </trkpt>
      <trkpt lat="48.4457" lon="-4.77668">
        <ele>7</ele>
        <time>2018-03-28T02:35:01Z</time>
      </trkpt>
      <trkpt lat="48.44546" lon="-4.77652">
        <ele>6</ele>
        <time>2018-03-28T02:36:01Z</time>
      </trkpt>
      <trkpt lat="48.44557" lon="-4.77606">
        <ele>8</ele>
        <time>2018-03-28T02:37:01Z</time>
      </trkpt>
      <trkpt lat="48.44563" lon="-4.77565">
        <ele>9</ele>
        <time>2018-03-28T02:38:01Z</time>
      </trkpt>
      <trkpt lat="48.44558" lon="-4.77556">
        <ele>9</ele>
        <time>2018-03-28T02:39:01Z</time>
      </trkpt>
      <trkpt lat="48.4456" lon="-4.77532">
        <ele>9</ele>
        <time>2018-03-28T02:40:01Z</time>
      </trkpt>
      <trkpt lat="48.4455" lon="-4.77501">
        <ele>9</ele>
        <time>2018-03-28T02:41:01Z</time>
      </trkpt>
      <trkpt lat="48.44551" lon="-4.77492">
        <ele>9</ele>
        <time>2018-03-28T02:42:01Z</time>
      </trkpt>
      <trkpt lat="48.4454" lon="-4.7747">
        <ele>10</ele>
        <time>2018-03-28T02:43:01Z</time>
      </trkpt>
      <trkpt lat="48.44541" lon="-4.7746">
        <ele>10</ele>
        <time>2018-03-28T02:44:01Z</time>
      </trkpt>
      <trkpt lat="48.44533" lon="-4.77458">
        <ele>10</ele>
        <time>2018-03-28T02:45:01Z</time>
      </trkpt>
      <trkpt lat="48.4453" lon="-4.77466">
        <ele>10</ele>
        <time>2018-03-28T02:46:01Z</time>
      </trkpt>
      <trkpt lat="48.4453" lon="-4.77466">
        <ele>10</ele>
        <time>2018-03-28T02:47:01Z</time>
      </trkpt>
      <trkpt lat="48.44533" lon="-4.77458">
        <ele>10</ele>
        <time>2018-03-28T02:48:01Z</time>
      </trkpt>
      <trkpt lat="48.44533" lon="-4.77443">
        <ele>10</ele>
        <time>2018-03-28T02:49:01Z</time>
      </trkpt>
      <trkpt lat="48.44525" lon="-4.77434">
        <ele>10</ele>
        <time>2018-03-28T02:50:01Z</time>
      </trkpt>
      <trkpt lat="48.44431" lon="-4.77557">
        <ele>8</ele>
        <time>2018-03-28T02:51:01Z</time>
      </trkpt>
      <trkpt lat="48.44434" lon="-4.77564">
        <ele>8</ele>
        <time>2018-03-28T02:52:01Z</time>
      </trkpt>
      <trkpt lat="48.44427" lon="-4.77574">
        <ele>7</ele>
        <time>2018-03-28T02:53:01Z</time>
      </trkpt>
      <trkpt lat="48.44407" lon="-4.77596">
        <ele>6</ele>
        <time>2018-03-28T02:54:01Z</time>
      </trkpt>
      <trkpt lat="48.44407" lon="-4.77596">
        <ele>6</ele>
        <time>2018-03-28T02:55:01Z</time>
      </trkpt>
      <trkpt lat="48.44399" lon="-4.77604">
        <ele>6</ele>
        <time>2018-03-28T02:56:01Z</time>
      </trkpt>
      <trkpt lat="48.44383" lon="-4.77596">
        <ele>6</ele>
        <time>2018-03-28T02:57:01Z</time>
      </trkpt>
      <trkpt lat="48.44362" lon="-4.77591">
        <ele>7</ele>
        <time>2018-03-28T02:58:01Z</time>
      </trkpt>
      <trkpt lat="48.44359" lon="-4.77595">
        <ele>6</ele>
        <time>2018-03-28T02:59:01Z</time>
      </trkpt>
      <trkpt lat="48.44356" lon="-4.7761">
        <ele>6</ele>
        <time>2018-03-28T03:00:01Z</time>
      </trkpt>
      <trkpt lat="48.44344" lon="-4.77633">
        <ele>5</ele>
        <time>2018-03-28T03:01:01Z</time>
      </trkpt>
      <trkpt lat="48.44327" lon="-4.77659">
        <ele>4</ele>
        <time>2018-03-28T03:02:01Z</time>
      </trkpt>
      <trkpt lat="48.4432" lon="-4.77674">
        <ele>4</ele>
        <time>2018-03-28T03:03:01Z</time>
      </trkpt>
      <trkpt lat="48.44319" lon="-4.77698">
        <ele>4</ele>
        <time>2018-03-28T03:04:01Z</time>
      </trkpt>
      <trkpt lat="48.44314" lon="-4.77715">
        <ele>4</ele>
        <time>2018-03-28T03:05:01Z</time>
      </trkpt>
      <trkpt lat="48.44305" lon="-4.77737">
        <ele>4</ele>
        <time>2018-03-28T03:06:01Z</time>
      </trkpt>
      <trkpt lat="48.44264" lon="-4.7778">
        <ele>6</ele>
        <time>2018-03-28T03:07:01Z</time>
      </trkpt>
      <trkpt lat="48.44264" lon="-4.7778">
        <ele>6</ele>
        <time>2018-03-28T03:08:01Z</time>
      </trkpt>
      <trkpt lat="48.44223" lon="-4.77824">
        <ele>7</ele>
        <time>2018-03-28T03:09:01Z</time>
      </trkpt>
      <trkpt lat="48.4421" lon="-4.77834">
        <ele>7</ele>
        <time>2018-03-28T03:10:01Z</time>
      </trkpt>
      <trkpt lat="48.442" lon="-4.77845">
        <ele>7</ele>
        <time>2018-03-28T03:11:01Z</time>
      </trkpt>
      <trkpt lat="48.44193" lon="-4.7786">
        <ele>7</ele>
        <time>2018-03-28T03:12:01Z</time>
      </trkpt>
      <trkpt lat="48.44168" lon="-4.77897">
        <ele>5</ele>
        <time>2018-03-28T03:13:01Z</time>
      </trkpt>
      <trkpt lat="48.44062" lon="-4.77965">
        <ele>5</ele>
        <time>2018-03-28T03:14:01Z</time>
      </trkpt>
      <trkpt lat="48.44037" lon="-4.77972">
        <ele>5</ele>
        <time>2018-03-28T03:15:01Z</time>
      </trkpt>
      <trkpt lat="48.44002" lon="-4.7799">
        <ele>5</ele>
        <time>2018-03-28T03:16:01Z</time>
      </trkpt>
      <trkpt lat="48.43988" lon="-4.7798">
        <ele>5</ele>
        <time>2018-03-28T03:17:01Z</time>
      </trkpt>
      <trkpt lat="48.43988" lon="-4.7798">
        <ele>5</ele>
        <time>2018-03-28T03:18:01Z</time>
      </trkpt>
      <trkpt lat="48.43969" lon="-4.77958">
        <ele>7</ele>
        <time>2018-03-28T03:19:01Z</time>
      </trkpt>
      <trkpt lat="48.43964" lon="-4.77955">
        <ele>7</ele>
        <time>2018-03-28T03:20:01Z</time>
      </trkpt>
      <trkpt lat="48.43958" lon="-4.77957">
        <ele>7</ele>
        <time>2018-03-28T03:21:01Z</time>
      </trkpt>
      <trkpt lat="48.43936" lon="-4.7797">
        <ele>7</ele>
        <time>2018-03-28T03:22:01Z</time>
      </trkpt>
      <trkpt lat="48.43926" lon="-4.7799">
        <ele>6</ele>
        <time>2018-03-28T03:23:01Z</time>
      </trkpt>
      <trkpt lat="48.43909" lon="-4.78037">
        <ele>5</ele>
        <time>2018-03-28T03:24:01Z</time>
      </trkpt>
      <trkpt lat="48.43897" lon="-4.78046">
        <ele>5</ele>
        <time>2018-03-28T03:25:01Z</time>
      </trkpt>
      <trkpt lat="48.43888" lon="-4.78047">
        <ele>5</ele>
        <time>2018-03-28T03:26:01Z</time>
      </trkpt>
      <trkpt lat="48.43877" lon="-4.78051">
        <ele>6</ele>
        <time>2018-03-28T03:27:01Z</time>
      </trkpt>
      <trkpt lat="48.43869" lon="-4.78062">
        <ele>5</ele>
        <time>2018-03-28T03:28:01Z</time>
      </trkpt>
      <trkpt lat="48.43861" lon="-4.78083">
        <ele>5</ele>
        <time>2018-03-28T03:29:01Z</time>
      </trkpt>
      <trkpt lat="48.43859" lon="-4.78108">
        <ele>5</ele>
        <time>2018-03-28T03:30:01Z</time>
      </trkpt>
      <trkpt lat="48.43861" lon="-4.7812">
        <ele>5</ele>
        <time>2018-03-28T03:31:01Z</time>
      </trkpt>
      <trkpt lat="48.43868" lon="-4.7813">
        <ele>5</ele>
        <time>2018-03-28T03:32:01Z</time>
      </trkpt>
      <trkpt lat="48.43872" lon="-4.78183">
        <ele>5</ele>
        <time>2018-03-28T03:33:01Z</time>
      </trkpt>
      <trkpt lat="48.43876" lon="-4.78222">
        <ele>5</ele>
        <time>2018-03-28T03:34:01Z</time>
      </trkpt>
      <trkpt lat="48.43844" lon="-4.7823">
        <ele>6</ele>
        <time>2018-03-28T03:35:01Z</time>
      </trkpt>
      <trkpt lat="48.43822" lon="-4.7823">
        <ele>7</ele>
        <time>2018-03-28T03:36:01Z</time>
      </trkpt>
      <trkpt lat="48.43818" lon="-4.78234">
        <ele>7</ele>
        <time>2018-03-28T03:37:01Z</time>
      </trkpt>
      <trkpt lat="48.43804" lon="-4.78227">
        <ele>7</ele>
        <time>2018-03-28T03:38:01Z</time>
      </trkpt>
      <trkpt lat="48.438" lon="-4.78231">
        <ele>8</ele>
        <time>2018-03-28T03:39:01Z</time>
      </trkpt>
      <trkpt lat="48.4379" lon="-4.78244">
        <ele>8</ele>
        <time>2018-03-28T03:40:01Z</time>
      </trkpt>
      <trkpt lat="48.43784" lon="-4.78255">
        <ele>8</ele>
        <time>2018-03-28T03:41:01Z</time>
      </trkpt>
      <trkpt lat="48.43766" lon="-4.78294">
        <ele>8</ele>
        <time>2018-03-28T03:42:01Z</time>
      </trkpt>
      <trkpt lat="48.43759" lon="-4.78301">
        <ele>8</ele>
        <time>2018-03-28T03:43:01Z</time>
      </trkpt>
      <trkpt lat="48.43753" lon="-4.78304">
        <ele>8</ele>
        <time>2018-03-28T03:44:01Z</time>
      </trkpt>
      <trkpt lat="48.43737" lon="-4.78331">
        <ele>8</ele>
        <time>2018-03-28T03:45:01Z</time>
      </trkpt>
      <trkpt lat="48.43733" lon="-4.78348">
        <ele>8</ele>
        <time>2018-03-28T03:46:01Z</time>
      </trkpt>
      <trkpt lat="48.43728" lon="-4.78394">
        <ele>7</ele>
        <time>2018-03-28T03:47:01Z</time>
      </trkpt>
      <trkpt lat="48.43721" lon="-4.78401">
        <ele>7</ele>
        <time>2018-03-28T03:48:01Z</time>
      </trkpt>
      <trkpt lat="48.43703" lon="-4.78407">
        <ele>8</ele>
        <time>2018-03-28T03:49:01Z</time>
      </trkpt>
      <trkpt lat="48.43699" lon="-4.78413">
        <ele>8</ele>
        <time>2018-03-28T03:50:01Z</time>
      </trkpt>
      <trkpt lat="48.43695" lon="-4.78425">
        <ele>8</ele>
        <time>2018-03-28T03:51:01Z</time>
      </trkpt>
      <trkpt lat="48.43667" lon="-4.78439">
        <ele>9</ele>
        <time>2018-03-28T03:52:01Z</time>
      </trkpt>
      <trkpt lat="48.43655" lon="-4.78449">
        <ele>9</ele>
        <time>2018-03-28T03:53:01Z</time>
      </trkpt>
      <trkpt lat="48.43643" lon="-4.78476">
        <ele>8</ele>
        <time>2018-03-28T03:54:01Z</time>
      </trkpt>
      <trkpt lat="48.43609" lon="-4.78511">
        <ele>7</ele>
        <time>2018-03-28T03:55:01Z</time>
      </trkpt>
      <trkpt lat="48.43599" lon="-4.78517">
        <ele>7</ele>
        <time>2018-03-28T03:56:01Z</time>
      </trkpt>
      <trkpt lat="48.43596" lon="-4.78526">
        <ele>6</ele>
        <time>2018-03-28T03:57:01Z</time>
      </trkpt>
      <trkpt lat="48.4359" lon="-4.78531">
        <ele>6</ele>
        <time>2018-03-28T03:58:01Z</time>
      </trkpt>
      <trkpt lat="48.4359" lon="-4.78531">
        <ele>6</ele>
        <time>2018-03-28T03:59:01Z</time>
      </trkpt>
      <trkpt lat="48.43574" lon="-4.78537">
        <ele>6</ele>
        <time>2018-03-28T04:00:01Z</time>
      </trkpt>
      <trkpt lat="48.43558" lon="-4.78532">
        <ele>7</ele>
        <time>2018-03-28T04:01:01Z</time>
      </trkpt>
      <trkpt lat="48.43515" lon="-4.78539">
        <ele>7</ele>
        <time>2018-03-28T04:02:01Z</time>
      </trkpt>
      <trkpt lat="48.43486" lon="-4.7854">
        <ele>7</ele>
        <time>2018-03-28T04:03:01Z</time>
      </trkpt>
      <trkpt lat="48.43455" lon="-4.78555">
        <ele>6</ele>
        <time>2018-03-28T04:04:01Z</time>
      </trkpt>
      <trkpt lat="48.43407" lon="-4.78521">
        <ele>10</ele>
        <time>2018-03-28T04:05:01Z</time>
      </trkpt>
      <trkpt lat="48.43392" lon="-4.78511">
        <ele>11</ele>
        <time>2018-03-28T04:06:01Z</time>
      </trkpt>
      <trkpt lat="48.43379" lon="-4.78491">
        <ele>12</ele>
        <time>2018-03-28T04:07:01Z</time>
      </trkpt>
      <trkpt lat="48.43394" lon="-4.78497">
        <ele>12</ele>
        <time>2018-03-28T04:08:01Z</time>
      </trkpt>
      <trkpt lat="48.43412" lon="-4.78509">
        <ele>11</ele>
        <time>2018-03-28T04:09:01Z</time>
      </trkpt>
      <trkpt lat="48.43412" lon="-4.78509">
        <ele>11</ele>
        <time>2018-03-28T04:10:01Z</time>
      </trkpt>
      <trkpt lat="48.43394" lon="-4.78497">
        <ele>12</ele>
        <time>2018-03-28T04:11:01Z</time>
      </trkpt>
      <trkpt lat="48.43379" lon="-4.78491">
        <ele>12</ele>
        <time>2018-03-28T04:12:01Z</time>
      </trkpt>
      <trkpt lat="48.43301" lon="-4.78428">
        <ele>17</ele>
        <time>2018-03-28T04:13:01Z</time>
      </trkpt>
      <trkpt lat="48.43301" lon="-4.78428">
        <ele>17</ele>
        <time>2018-03-28T04:14:01Z</time>
      </trkpt>
      <trkpt lat="48.43298" lon="-4.78426">
        <ele>17</ele>
        <time>2018-03-28T04:15:01Z</time>
      </trkpt>
      <trkpt lat="48.43297" lon="-4.78386">
        <ele>19</ele>
        <time>2018-03-28T04:16:01Z</time>
      </trkpt>
      <trkpt lat="48.43291" lon="-4.78361">
        <ele>20</ele>
        <time>2018-03-28T04:17:01Z</time>
      </trkpt>
      <trkpt lat="48.43283" lon="-4.78341">
        <ele>20</ele>
        <time>2018-03-28T04:18:01Z</time>
      </trkpt>
      <trkpt lat="48.43283" lon="-4.78337">
        <ele>20</ele>
        <time>2018-03-28T04:19:01Z</time>
      </trkpt>
      <trkpt lat="48.43227" lon="-4.78289">
        <ele>23</ele>
        <time>2018-03-28T04:20:01Z</time>
      </trkpt>
      <trkpt lat="48.43216" lon="-4.78273">
        <ele>24</ele>
        <time>2018-03-28T04:21:01Z</time>
      </trkpt>
      <trkpt lat="48.43168" lon="-4.7823">
        <ele>26</ele>
        <time>2018-03-28T04:22:01Z</time>
      </trkpt>
      <trkpt lat="48.43143" lon="-4.78192">
        <ele>26</ele>
        <time>2018-03-28T04:23:01Z</time>
      </trkpt>
      <trkpt lat="48.43124" lon="-4.78134">
        <ele>28</ele>
        <time>2018-03-28T04:24:01Z</time>
      </trkpt>
      <trkpt lat="48.43124" lon="-4.78134">
        <ele>28</ele>
        <time>2018-03-28T04:25:01Z</time>
      </trkpt>
      <trkpt lat="48.43117" lon="-4.78117">
        <ele>28</ele>
        <time>2018-03-28T04:26:01Z</time>
      </trkpt>
      <trkpt lat="48.43111" lon="-4.78059">
        <ele>29</ele>
        <time>2018-03-28T04:27:01Z</time>
      </trkpt>
      <trkpt lat="48.43108" lon="-4.78021">
        <ele>29</ele>
        <time>2018-03-28T04:28:01Z</time>
      </trkpt>
      <trkpt lat="48.43112" lon="-4.77945">
        <ele>32</ele>
        <time>2018-03-28T04:29:01Z</time>
      </trkpt>
      <trkpt lat="48.43124" lon="-4.77874">
        <ele>36</ele>
        <time>2018-03-28T04:30:01Z</time>
      </trkpt>
      <trkpt lat="48.43117" lon="-4.77839">
        <ele>37</ele>
        <time>2018-03-28T04:31:01Z</time>
      </trkpt>
      <trkpt lat="48.43126" lon="-4.77841">
        <ele>38</ele>
        <time>2018-03-28T04:32:01Z</time>
      </trkpt>
      <trkpt lat="48.43126" lon="-4.77841">
        <ele>38</ele>
        <time>2018-03-28T04:33:01Z</time>
      </trkpt>
      <trkpt lat="48.43117" lon="-4.77839">
        <ele>37</ele>
        <time>2018-03-28T04:34:01Z</time>
      </trkpt>
      <trkpt lat="48.43111" lon="-4.77821">
        <ele>37</ele>
        <time>2018-03-28T04:35:01Z</time>
      </trkpt>
      <trkpt lat="48.43099" lon="-4.77797">
        <ele>38</ele>
        <time>2018-03-28T04:36:01Z</time>
      </trkpt>
      <trkpt lat="48.43087" lon="-4.77753">
        <ele>39</ele>
        <time>2018-03-28T04:37:01Z</time>
      </trkpt>
      <trkpt lat="48.43083" lon="-4.77715">
        <ele>40</ele>
        <time>2018-03-28T04:38:01Z</time>
      </trkpt>
      <trkpt lat="48.43102" lon="-4.77559">
        <ele>40</ele>
        <time>2018-03-28T04:39:01Z</time>
      </trkpt>
      <trkpt lat="48.43104" lon="-4.77513">
        <ele>41</ele>
        <time>2018-03-28T04:40:01Z</time>
      </trkpt>
      <trkpt lat="48.43112" lon="-4.77508">
        <ele>41</ele>
        <time>2018-03-28T04:41:01Z</time>
      </trkpt>
      <trkpt lat="48.43112" lon="-4.77508">
        <ele>41</ele>
        <time>2018-03-28T04:42:01Z</time>
      </trkpt>
      <trkpt lat="48.43104" lon="-4.77513">
        <ele>41</ele>
        <time>2018-03-28T04:43:01Z</time>
      </trkpt>
      <trkpt lat="48.43096" lon="-4.77484">
        <ele>42</ele>
        <time>2018-03-28T04:44:01Z</time>
      </trkpt>
      <trkpt lat="48.43061" lon="-4.77302">
        <ele>47</ele>
        <time>2018-03-28T04:45:01Z</time>
      </trkpt>
      <trkpt lat="48.43059" lon="-4.77283">
        <ele>47</ele>
        <time>2018-03-28T04:46:01Z</time>
      </trkpt>
      <trkpt lat="48.43065" lon="-4.7728">
        <ele>46</ele>
        <time>2018-03-28T04:47:01Z</time>
      </trkpt>
      <trkpt lat="48.43065" lon="-4.7728">
        <ele>46</ele>
        <time>2018-03-28T04:48:01Z</time>
      </trkpt>
      <trkpt lat="48.43073" lon="-4.77275">
        <ele>46</ele>
        <time>2018-03-28T04:49:01Z</time>
      </trkpt>
      <trkpt lat="48.43077" lon="-4.77264">
        <ele>46</ele>
        <time>2018-03-28T04:50:01Z</time>
      </trkpt>
      <trkpt lat="48.4308" lon="-4.77246">
        <ele>45</ele>
        <time>2018-03-28T04:51:01Z</time>
      </trkpt>
      <trkpt lat="48.43079" lon="-4.77227">
        <ele>45</ele>
        <time>2018-03-28T04:52:01Z</time>
      </trkpt>
      <trkpt lat="48.43069" lon="-4.77191">
        <ele>46</ele>
        <time>2018-03-28T04:53:01Z</time>
      </trkpt>
      <trkpt lat="48.43056" lon="-4.77154">
        <ele>48</ele>
        <time>2018-03-28T04:54:01Z</time>
      </trkpt>
      <trkpt lat="48.43085" lon="-4.77108">
        <ele>49</ele>
        <time>2018-03-28T04:55:01Z</time>
      </trkpt>
      <trkpt lat="48.43042" lon="-4.77046">
        <ele>54</ele>
        <time>2018-03-28T04:56:01Z</time>
      </trkpt>
      <trkpt lat="48.43022" lon="-4.77012">
        <ele>56</ele>
        <time>2018-03-28T04:57:01Z</time>
      </trkpt>
      <trkpt lat="48.43022" lon="-4.77012">
        <ele>56</ele>
        <time>2018-03-28T04:58:01Z</time>
      </trkpt>
      <trkpt lat="48.43016" lon="-4.77002">
        <ele>57</ele>
        <time>2018-03-28T04:59:01Z</time>
      </trkpt>
      <trkpt lat="48.43047" lon="-4.76932">
        <ele>57</ele>
        <time>2018-03-28T05:00:01Z</time>
      </trkpt>
      <trkpt lat="48.43106" lon="-4.76917">
        <ele>57</ele>
        <time>2018-03-28T05:01:01Z</time>
      </trkpt>
      <trkpt lat="48.43168" lon="-4.76908">
        <ele>56</ele>
        <time>2018-03-28T05:02:01Z</time>
      </trkpt>
      <trkpt lat="48.43196" lon="-4.76899">
        <ele>55</ele>
        <time>2018-03-28T05:03:01Z</time>
      </trkpt>
      <trkpt lat="48.43215" lon="-4.76903">
        <ele>54</ele>
        <time>2018-03-28T05:04:01Z</time>
      </trkpt>
      <trkpt lat="48.43219" lon="-4.76909">
        <ele>54</ele>
        <time>2018-03-28T05:05:01Z</time>
      </trkpt>
      <trkpt lat="48.43219" lon="-4.76909">
        <ele>54</ele>
        <time>2018-03-28T05:06:01Z</time>
      </trkpt>
      <trkpt lat="48.43215" lon="-4.76903">
        <ele>54</ele>
        <time>2018-03-28T05:07:01Z</time>
      </trkpt>
      <trkpt lat="48.43248" lon="-4.76911">
        <ele>53</ele>
        <time>2018-03-28T05:08:01Z</time>
      </trkpt>
      <trkpt lat="48.43268" lon="-4.76913">
        <ele>52</ele>
        <time>2018-03-28T05:09:01Z</time>
      </trkpt>
      <trkpt lat="48.43296" lon="-4.76905">
        <ele>50</ele>
        <time>2018-03-28T05:10:01Z</time>
      </trkpt>
      <trkpt lat="48.43364" lon="-4.76825">
        <ele>47</ele>
        <time>2018-03-28T05:11:01Z</time>
      </trkpt>
      <trkpt lat="48.43385" lon="-4.7678">
        <ele>45</ele>
        <time>2018-03-28T05:12:01Z</time>
      </trkpt>
      <trkpt lat="48.43387" lon="-4.76772">
        <ele>45</ele>
        <time>2018-03-28T05:13:01Z</time>
      </trkpt>
      <trkpt lat="48.43387" lon="-4.76772">
        <ele>45</ele>
        <time>2018-03-28T05:14:01Z</time>
      </trkpt>
      <trkpt lat="48.43392" lon="-4.76746">
        <ele>44</ele>
        <time>2018-03-28T05:15:01Z</time>
      </trkpt>
      <trkpt lat="48.43391" lon="-4.76717">
        <ele>42</ele>
        <time>2018-03-28T05:16:01Z</time>
      </trkpt>
      <trkpt lat="48.43384" lon="-4.76667">
        <ele>40</ele>
        <time>2018-03-28T05:17:01Z</time>
      </trkpt>
      <trkpt lat="48.43382" lon="-4.76609">
        <ele>38</ele>
        <time>2018-03-28T05:18:01Z</time>
      </trkpt>
      <trkpt lat="48.43391" lon="-4.76551">
        <ele>37</ele>
        <time>2018-03-28T05:19:01Z</time>
      </trkpt>
      <trkpt lat="48.4341" lon="-4.76514">
        <ele>37</ele>
        <time>2018-03-28T05:20:01Z</time>
      </trkpt>
      <trkpt lat="48.43474" lon="-4.76463">
        <ele>36</ele>
        <time>2018-03-28T05:21:01Z</time>
      </trkpt>
      <trkpt lat="48.43493" lon="-4.76436">
        <ele>37</ele>
        <time>2018-03-28T05:22:01Z</time>
      </trkpt>
      <trkpt lat="48.43499" lon="-4.76417">
        <ele>37</ele>
        <time>2018-03-28T05:23:01Z</time>
      </trkpt>
      <trkpt lat="48.43511" lon="-4.76427">
        <ele>36</ele>
        <time>2018-03-28T05:24:01Z</time>
      </trkpt>
      <trkpt lat="48.43511" lon="-4.76427">
        <ele>36</ele>
        <time>2018-03-28T05:25:01Z</time>
      </trkpt>
      <trkpt lat="48.43499" lon="-4.76417">
        <ele>37</ele>
        <time>2018-03-28T05:26:01Z</time>
      </trkpt>
      <trkpt lat="48.43504" lon="-4.76401">
        <ele>37</ele>
        <time>2018-03-28T05:27:01Z</time>
      </trkpt>
      <trkpt lat="48.43505" lon="-4.76366">
        <ele>38</ele>
        <time>2018-03-28T05:28:01Z</time>
      </trkpt>
      <trkpt lat="48.43495" lon="-4.76322">
        <ele>40</ele>
        <time>2018-03-28T05:29:01Z</time>
      </trkpt>
      <trkpt lat="48.43481" lon="-4.76284">
        <ele>41</ele>
        <time>2018-03-28T05:30:01Z</time>
      </trkpt>
      <trkpt lat="48.4348" lon="-4.76237">
        <ele>41</ele>
        <time>2018-03-28T05:31:01Z</time>
      </trkpt>
      <trkpt lat="48.43485" lon="-4.76206">
        <ele>42</ele>
        <time>2018-03-28T05:32:01Z</time>
      </trkpt>
      <trkpt lat="48.43506" lon="-4.76152">
        <ele>42</ele>
        <time>2018-03-28T05:33:01Z</time>
      </trkpt>
      <trkpt lat="48.43542" lon="-4.76079">
        <ele>42</ele>
        <time>2018-03-28T05:34:01Z</time>
      </trkpt>
      <trkpt lat="48.4361" lon="-4.75932">
        <ele>43</ele>
        <time>2018-03-28T05:35:01Z</time>
      </trkpt>
      <trkpt lat="48.43629" lon="-4.75875">
        <ele>43</ele>
        <time>2018-03-28T05:36:01Z</time>
      </trkpt>
      <trkpt lat="48.43637" lon="-4.75883">
        <ele>42</ele>
        <time>2018-03-28T05:37:01Z</time>
      </trkpt>
      <trkpt lat="48.43637" lon="-4.75883">
        <ele>42</ele>
        <time>2018-03-28T05:38:01Z</time>
      </trkpt>
      <trkpt lat="48.43629" lon="-4.75875">
        <ele>43</ele>
        <time>2018-03-28T05:39:01Z</time>
      </trkpt>
      <trkpt lat="48.4362" lon="-4.75773">
        <ele>45</ele>
        <time>2018-03-28T05:40:01Z</time>
      </trkpt>
      <trkpt lat="48.43615" lon="-4.75676">
        <ele>45</ele>
        <time>2018-03-28T05:41:01Z</time>
      </trkpt>
      <trkpt lat="48.43616" lon="-4.75647">
        <ele>45</ele>
        <time>2018-03-28T05:42:01Z</time>
      </trkpt>
      <trkpt lat="48.43627" lon="-4.75607">
        <ele>44</ele>
        <time>2018-03-28T05:43:01Z</time>
      </trkpt>
      <trkpt lat="48.43647" lon="-4.75577">
        <ele>42</ele>
        <time>2018-03-28T05:44:01Z</time>
      </trkpt>
      <trkpt lat="48.43699" lon="-4.7552">
        <ele>40</ele>
        <time>2018-03-28T05:45:01Z</time>
      </trkpt>
      <trkpt lat="48.43729" lon="-4.75494">
        <ele>39</ele>
        <time>2018-03-28T05:46:01Z</time>
      </trkpt>
      <trkpt lat="48.43776" lon="-4.75469">
        <ele>40</ele>
        <time>2018-03-28T05:47:01Z</time>
      </trkpt>
      <trkpt lat="48.43779" lon="-4.75479">
        <ele>40</ele>
        <time>2018-03-28T05:48:01Z</time>
      </trkpt>
      <trkpt lat="48.43779" lon="-4.75479">
        <ele>40</ele>
        <time>2018-03-28T05:49:01Z</time>
      </trkpt>
      <trkpt lat="48.4379" lon="-4.75508">
        <ele>39</ele>
        <time>2018-03-28T05:50:01Z</time>
      </trkpt>
      <trkpt lat="48.43814" lon="-4.75543">
        <ele>38</ele>
        <time>2018-03-28T05:51:01Z</time>
      </trkpt>
      <trkpt lat="48.43832" lon="-4.75579">
        <ele>38</ele>
        <time>2018-03-28T05:52:01Z</time>
      </trkpt>
      <trkpt lat="48.43887" lon="-4.7571">
        <ele>39</ele>
        <time>2018-03-28T05:53:01Z</time>
      </trkpt>
      <trkpt lat="48.43898" lon="-4.75723">
        <ele>41</ele>
        <time>2018-03-28T05:54:01Z</time>
      </trkpt>
      <trkpt lat="48.43926" lon="-4.75739">
        <ele>43</ele>
        <time>2018-03-28T05:55:01Z</time>
      </trkpt>
      <trkpt lat="48.43935" lon="-4.75746">
        <ele>43</ele>
        <time>2018-03-28T05:56:01Z</time>
      </trkpt>
      <trkpt lat="48.44159" lon="-4.76022">
        <ele>25</ele>
        <time>2018-03-28T05:57:01Z</time>
      </trkpt>
      <trkpt lat="48.44162" lon="-4.76041">
        <ele>26</ele>
        <time>2018-03-28T05:58:01Z</time>
      </trkpt>
      <trkpt lat="48.44162" lon="-4.76041">
        <ele>26</ele>
        <time>2018-03-28T05:59:01Z</time>
      </trkpt>
      <trkpt lat="48.44159" lon="-4.76022">
        <ele>25</ele>
        <time>2018-03-28T06:00:01Z</time>
      </trkpt>
      <trkpt lat="48.44162" lon="-4.76025">
        <ele>26</ele>
        <time>2018-03-28T06:01:01Z</time>
      </trkpt>
      <trkpt lat="48.44171" lon="-4.76025">
        <ele>26</ele>
        <time>2018-03-28T06:02:01Z</time>
      </trkpt>
      <trkpt lat="48.44204" lon="-4.76001">
        <ele>25</ele>
        <time>2018-03-28T06:03:01Z</time>
      </trkpt>
      <trkpt lat="48.44231" lon="-4.75986">
        <ele>26</ele>
        <time>2018-03-28T06:04:01Z</time>
      </trkpt>
      <trkpt lat="48.44294" lon="-4.75965">
        <ele>28</ele>
        <time>2018-03-28T06:05:01Z</time>
      </trkpt>
      <trkpt lat="48.44331" lon="-4.75948">
        <ele>30</ele>
        <time>2018-03-28T06:06:01Z</time>
      </trkpt>
      <trkpt lat="48.4436" lon="-4.75914">
        <ele>31</ele>
        <time>2018-03-28T06:07:01Z</time>
      </trkpt>
      <trkpt lat="48.44384" lon="-4.75888">
        <ele>33</ele>
        <time>2018-03-28T06:08:01Z</time>
      </trkpt>
      <trkpt lat="48.4439" lon="-4.75869">
        <ele>33</ele>
        <time>2018-03-28T06:09:01Z</time>
      </trkpt>
      <trkpt lat="48.44393" lon="-4.75829">
        <ele>34</ele>
        <time>2018-03-28T06:10:01Z</time>
      </trkpt>
      <trkpt lat="48.44397" lon="-4.75819">
        <ele>34</ele>
        <time>2018-03-28T06:11:01Z</time>
      </trkpt>
      <trkpt lat="48.444" lon="-4.75815">
        <ele>35</ele>
        <time>2018-03-28T06:12:01Z</time>
      </trkpt>
      <trkpt lat="48.44429" lon="-4.75804">
        <ele>36</ele>
        <time>2018-03-28T06:13:01Z</time>
      </trkpt>
      <trkpt lat="48.44471" lon="-4.75816">
        <ele>36</ele>
        <time>2018-03-28T06:14:01Z</time>
      </trkpt>
      <trkpt lat="48.44471" lon="-4.75816">
        <ele>36</ele>
        <time>2018-03-28T06:15:01Z</time>
      </trkpt>
      <trkpt lat="48.44484" lon="-4.75853">
        <ele>37</ele>
        <time>2018-03-28T06:16:01Z</time>
      </trkpt>
      <trkpt lat="48.4449" lon="-4.75884">
        <ele>38</ele>
        <time>2018-03-28T06:17:01Z</time>
      </trkpt>
      <trkpt lat="48.44493" lon="-4.75918">
        <ele>39</ele>
        <time>2018-03-28T06:18:01Z</time>
      </trkpt>
      <trkpt lat="48.44495" lon="-4.75992">
        <ele>41</ele>
        <time>2018-03-28T06:19:01Z</time>
      </trkpt>
      <trkpt lat="48.445" lon="-4.76006">
        <ele>41</ele>
        <time>2018-03-28T06:20:01Z</time>
      </trkpt>
      <trkpt lat="48.44499" lon="-4.76011">
        <ele>41</ele>
        <time>2018-03-28T06:21:01Z</time>
      </trkpt>
      <trkpt lat="48.44499" lon="-4.76011">
        <ele>41</ele>
        <time>2018-03-28T06:22:01Z</time>
      </trkpt>
      <trkpt lat="48.445" lon="-4.76006">
        <ele>41</ele>
        <time>2018-03-28T06:23:01Z</time>
      </trkpt>
      <trkpt lat="48.44564" lon="-4.76005">
        <ele>41</ele>
        <time>2018-03-28T06:24:01Z</time>
      </trkpt>
      <trkpt lat="48.44597" lon="-4.76002">
        <ele>41</ele>
        <time>2018-03-28T06:25:01Z</time>
      </trkpt>
      <trkpt lat="48.44627" lon="-4.75993">
        <ele>41</ele>
        <time>2018-03-28T06:26:01Z</time>
      </trkpt>
      <trkpt lat="48.44687" lon="-4.76009">
        <ele>41</ele>
        <time>2018-03-28T06:27:01Z</time>
      </trkpt>
      <trkpt lat="48.44711" lon="-4.76039">
        <ele>40</ele>
        <time>2018-03-28T06:28:01Z</time>
      </trkpt>
      <trkpt lat="48.44708" lon="-4.76041">
        <ele>40</ele>
        <time>2018-03-28T06:29:01Z</time>
      </trkpt>
      <trkpt lat="48.44706" lon="-4.76047">
        <ele>40</ele>
        <time>2018-03-28T06:30:01Z</time>
      </trkpt>
      <trkpt lat="48.44706" lon="-4.76047">
        <ele>40</ele>
        <time>2018-03-28T06:31:01Z</time>
      </trkpt>
      <trkpt lat="48.44708" lon="-4.76041">
        <ele>40</ele>
        <time>2018-03-28T06:32:01Z</time>
      </trkpt>
      <trkpt lat="48.44723" lon="-4.76035">
        <ele>40</ele>
        <time>2018-03-28T06:33:01Z</time>
      </trkpt>
      <trkpt lat="48.44744" lon="-4.7602">
        <ele>39</ele>
        <time>2018-03-28T06:34:01Z</time>
      </trkpt>
      <trkpt lat="48.44783" lon="-4.76115">
        <ele>39</ele>
        <time>2018-03-28T06:35:01Z</time>
      </trkpt>
      <trkpt lat="48.44807" lon="-4.76202">
        <ele>36</ele>
        <time>2018-03-28T06:36:01Z</time>
      </trkpt>
      <trkpt lat="48.44812" lon="-4.76201">
        <ele>36</ele>
        <time>2018-03-28T06:37:01Z</time>
      </trkpt>
      <trkpt lat="48.44828" lon="-4.76253">
        <ele>35</ele>
        <time>2018-03-28T06:38:01Z</time>
      </trkpt>
      <trkpt lat="48.44832" lon="-4.76256">
        <ele>35</ele>
        <time>2018-03-28T06:39:01Z</time>
      </trkpt>
      <trkpt lat="48.44836" lon="-4.76264">
        <ele>35</ele>
        <time>2018-03-28T06:40:01Z</time>
      </trkpt>
    </trkseg>
  </trk>
</gpx>